<?xml version="1.0" encoding="UTF-8" standalone="no" ?>
<gpx xmlns="http://www.topografix.com/GPX/1/1" xmlns:xsi="http://www.w3.org/2001/XMLSchema-instance" xsi:schemaLocation="http://www.topografix.com/GPX/1/1 http://www.topografix.com/GPX/1/1/gpx.xsd" version="1.1" creator="VisuGPX - https://www.visugpx.com">
  <metadata>
    <name>schiffenen-laupen</name>
  </metadata>
  <trk>
    <name><![CDATA[schiffenen-laupen]]></name>
    <extensions>
      <line xmlns="http://www.topografix.com/GPX/gpx_style/0/2">
        <color>0000FF</color>
        <width>4</width>
      </line>
    </extensions>
    <trkseg>
      <trkpt lat="46.88309" lon="7.1959">
        <ele>536.4</ele>
        <time>2021-05-20T08:15:00.000Z</time>
      </trkpt>
      <trkpt lat="46.88314" lon="7.19588">
        <ele>537.7</ele>
        <time>2021-05-20T08:15:23.323Z</time>
      </trkpt>
      <trkpt lat="46.88323" lon="7.19569">
        <ele>540.9</ele>
        <time>2021-05-20T08:16:32.303Z</time>
      </trkpt>
      <trkpt lat="46.88336" lon="7.19508">
        <ele>541.8</ele>
        <time>2021-05-20T08:17:31.233Z</time>
      </trkpt>
      <trkpt lat="46.88343" lon="7.19488">
        <ele>542</ele>
        <time>2021-05-20T08:17:50.394Z</time>
      </trkpt>
      <trkpt lat="46.88382" lon="7.19412">
        <ele>542.6</ele>
        <time>2021-05-20T08:19:09.258Z</time>
      </trkpt>
      <trkpt lat="46.88459" lon="7.19239">
        <ele>547.8</ele>
        <time>2021-05-20T08:23:04.921Z</time>
      </trkpt>
      <trkpt lat="46.88506" lon="7.19149">
        <ele>553.8</ele>
        <time>2021-05-20T08:26:06.913Z</time>
      </trkpt>
      <trkpt lat="46.88534" lon="7.19103">
        <ele>555.6</ele>
        <time>2021-05-20T08:27:23.320Z</time>
      </trkpt>
      <trkpt lat="46.88539" lon="7.19099">
        <ele>555.6</ele>
        <time>2021-05-20T08:27:29.985Z</time>
      </trkpt>
      <trkpt lat="46.8854" lon="7.1909">
        <ele>555.6</ele>
        <time>2021-05-20T08:27:36.993Z</time>
      </trkpt>
      <trkpt lat="46.88625" lon="7.19023">
        <ele>558.3</ele>
        <time>2021-05-20T08:30:00.811Z</time>
      </trkpt>
      <trkpt lat="46.88624" lon="7.19019">
        <ele>558.4</ele>
        <time>2021-05-20T08:30:05.441Z</time>
      </trkpt>
      <trkpt lat="46.88642" lon="7.18989">
        <ele>562.7</ele>
        <time>2021-05-20T08:32:02.110Z</time>
      </trkpt>
      <trkpt lat="46.88643" lon="7.18953">
        <ele>565.8</ele>
        <time>2021-05-20T08:33:37.811Z</time>
      </trkpt>
      <trkpt lat="46.88648" lon="7.18928">
        <ele>568.2</ele>
        <time>2021-05-20T08:34:53.998Z</time>
      </trkpt>
      <trkpt lat="46.88653" lon="7.1887">
        <ele>569.9</ele>
        <time>2021-05-20T08:36:06.199Z</time>
      </trkpt>
      <trkpt lat="46.88652" lon="7.18849">
        <ele>568.8</ele>
        <time>2021-05-20T08:36:09.567Z</time>
      </trkpt>
      <trkpt lat="46.88657" lon="7.18824">
        <ele>569.2</ele>
        <time>2021-05-20T08:36:34.413Z</time>
      </trkpt>
      <trkpt lat="46.88661" lon="7.18776">
        <ele>569.9</ele>
        <time>2021-05-20T08:37:20.069Z</time>
      </trkpt>
      <trkpt lat="46.88671" lon="7.18702">
        <ele>570.7</ele>
        <time>2021-05-20T08:38:26.282Z</time>
      </trkpt>
      <trkpt lat="46.88671" lon="7.18668">
        <ele>570.5</ele>
        <time>2021-05-20T08:38:35.222Z</time>
      </trkpt>
      <trkpt lat="46.88666" lon="7.18632">
        <ele>569.6</ele>
        <time>2021-05-20T08:38:42.472Z</time>
      </trkpt>
      <trkpt lat="46.88671" lon="7.18597">
        <ele>569.2</ele>
        <time>2021-05-20T08:38:50.738Z</time>
      </trkpt>
      <trkpt lat="46.88671" lon="7.18567">
        <ele>568.5</ele>
        <time>2021-05-20T08:38:56.625Z</time>
      </trkpt>
      <trkpt lat="46.88675" lon="7.18548">
        <ele>568.8</ele>
        <time>2021-05-20T08:39:16.067Z</time>
      </trkpt>
      <trkpt lat="46.88679" lon="7.18507">
        <ele>568.4</ele>
        <time>2021-05-20T08:39:26.046Z</time>
      </trkpt>
      <trkpt lat="46.88696" lon="7.18432">
        <ele>567.7</ele>
        <time>2021-05-20T08:39:45.548Z</time>
      </trkpt>
      <trkpt lat="46.88706" lon="7.18412">
        <ele>567.5</ele>
        <time>2021-05-20T08:39:51.669Z</time>
      </trkpt>
      <trkpt lat="46.88739" lon="7.18315">
        <ele>566.6</ele>
        <time>2021-05-20T08:40:18.832Z</time>
      </trkpt>
      <trkpt lat="46.88748" lon="7.18301">
        <ele>566.4</ele>
        <time>2021-05-20T08:40:23.542Z</time>
      </trkpt>
      <trkpt lat="46.8876" lon="7.18289">
        <ele>565.9</ele>
        <time>2021-05-20T08:40:27.834Z</time>
      </trkpt>
      <trkpt lat="46.88814" lon="7.18219">
        <ele>564.7</ele>
        <time>2021-05-20T08:40:52.682Z</time>
      </trkpt>
      <trkpt lat="46.88845" lon="7.18192">
        <ele>560.7</ele>
        <time>2021-05-20T08:41:00.988Z</time>
      </trkpt>
      <trkpt lat="46.88875" lon="7.18249">
        <ele>565.4</ele>
        <time>2021-05-20T08:43:16.495Z</time>
      </trkpt>
      <trkpt lat="46.88898" lon="7.18317">
        <ele>569.4</ele>
        <time>2021-05-20T08:45:18.302Z</time>
      </trkpt>
      <trkpt lat="46.88906" lon="7.1835">
        <ele>571.6</ele>
        <time>2021-05-20T08:46:22.026Z</time>
      </trkpt>
      <trkpt lat="46.8891" lon="7.18392">
        <ele>574.9</ele>
        <time>2021-05-20T08:47:58.394Z</time>
      </trkpt>
      <trkpt lat="46.88864" lon="7.18413">
        <ele>576.7</ele>
        <time>2021-05-20T08:49:19.255Z</time>
      </trkpt>
      <trkpt lat="46.88847" lon="7.18425">
        <ele>577.7</ele>
        <time>2021-05-20T08:49:56.491Z</time>
      </trkpt>
      <trkpt lat="46.88837" lon="7.18437">
        <ele>578</ele>
        <time>2021-05-20T08:50:14.473Z</time>
      </trkpt>
      <trkpt lat="46.88833" lon="7.18448">
        <ele>578.3</ele>
        <time>2021-05-20T08:50:29.007Z</time>
      </trkpt>
      <trkpt lat="46.88834" lon="7.18458">
        <ele>578.6</ele>
        <time>2021-05-20T08:50:41.049Z</time>
      </trkpt>
      <trkpt lat="46.88949" lon="7.18628">
        <ele>586.6</ele>
        <time>2021-05-20T08:55:55.276Z</time>
      </trkpt>
      <trkpt lat="46.88989" lon="7.18707">
        <ele>591.2</ele>
        <time>2021-05-20T08:58:23.345Z</time>
      </trkpt>
      <trkpt lat="46.89029" lon="7.18734">
        <ele>592.9</ele>
        <time>2021-05-20T08:59:38.825Z</time>
      </trkpt>
      <trkpt lat="46.89124" lon="7.18841">
        <ele>593.3</ele>
        <time>2021-05-20T09:01:55.296Z</time>
      </trkpt>
      <trkpt lat="46.89164" lon="7.18892">
        <ele>593.8</ele>
        <time>2021-05-20T09:02:59.212Z</time>
      </trkpt>
      <trkpt lat="46.89193" lon="7.1892">
        <ele>594.5</ele>
        <time>2021-05-20T09:03:46.462Z</time>
      </trkpt>
      <trkpt lat="46.89268" lon="7.1905">
        <ele>596.7</ele>
        <time>2021-05-20T09:06:22.232Z</time>
      </trkpt>
      <trkpt lat="46.89314" lon="7.19117">
        <ele>597.1</ele>
        <time>2021-05-20T09:07:37.420Z</time>
      </trkpt>
      <trkpt lat="46.89363" lon="7.192">
        <ele>595.9</ele>
        <time>2021-05-20T09:08:03.875Z</time>
      </trkpt>
      <trkpt lat="46.89378" lon="7.19227">
        <ele>595.4</ele>
        <time>2021-05-20T09:08:11.359Z</time>
      </trkpt>
      <trkpt lat="46.8938" lon="7.19265">
        <ele>595</ele>
        <time>2021-05-20T09:08:20.515Z</time>
      </trkpt>
      <trkpt lat="46.89375" lon="7.19332">
        <ele>592.7</ele>
        <time>2021-05-20T09:08:31.799Z</time>
      </trkpt>
      <trkpt lat="46.89381" lon="7.19387">
        <ele>589.8</ele>
        <time>2021-05-20T09:08:40.713Z</time>
      </trkpt>
      <trkpt lat="46.89401" lon="7.19447">
        <ele>585.6</ele>
        <time>2021-05-20T09:08:51.432Z</time>
      </trkpt>
      <trkpt lat="46.89427" lon="7.19507">
        <ele>581.5</ele>
        <time>2021-05-20T09:09:02.867Z</time>
      </trkpt>
      <trkpt lat="46.89425" lon="7.19511">
        <ele>581.4</ele>
        <time>2021-05-20T09:09:03.819Z</time>
      </trkpt>
      <trkpt lat="46.89432" lon="7.19562">
        <ele>576.2</ele>
        <time>2021-05-20T09:09:12.185Z</time>
      </trkpt>
      <trkpt lat="46.89432" lon="7.19583">
        <ele>574.2</ele>
        <time>2021-05-20T09:09:15.546Z</time>
      </trkpt>
      <trkpt lat="46.89423" lon="7.19615">
        <ele>571</ele>
        <time>2021-05-20T09:09:21.096Z</time>
      </trkpt>
      <trkpt lat="46.89416" lon="7.19661">
        <ele>567</ele>
        <time>2021-05-20T09:09:28.595Z</time>
      </trkpt>
      <trkpt lat="46.89387" lon="7.19808">
        <ele>558.6</ele>
        <time>2021-05-20T09:09:53.131Z</time>
      </trkpt>
      <trkpt lat="46.89369" lon="7.19934">
        <ele>551.4</ele>
        <time>2021-05-20T09:10:13.735Z</time>
      </trkpt>
      <trkpt lat="46.89367" lon="7.19982">
        <ele>547.1</ele>
        <time>2021-05-20T09:10:21.534Z</time>
      </trkpt>
      <trkpt lat="46.89395" lon="7.20106">
        <ele>533.7</ele>
        <time>2021-05-20T09:10:42.335Z</time>
      </trkpt>
      <trkpt lat="46.89412" lon="7.20145">
        <ele>529.4</ele>
        <time>2021-05-20T09:10:49.803Z</time>
      </trkpt>
      <trkpt lat="46.89431" lon="7.20178">
        <ele>525.2</ele>
        <time>2021-05-20T09:10:56.671Z</time>
      </trkpt>
      <trkpt lat="46.89436" lon="7.20199">
        <ele>523.1</ele>
        <time>2021-05-20T09:11:00.262Z</time>
      </trkpt>
      <trkpt lat="46.89432" lon="7.20229">
        <ele>520.8</ele>
        <time>2021-05-20T09:11:05.208Z</time>
      </trkpt>
      <trkpt lat="46.89434" lon="7.20312">
        <ele>517.5</ele>
        <time>2021-05-20T09:11:18.152Z</time>
      </trkpt>
      <trkpt lat="46.89444" lon="7.20355">
        <ele>515.3</ele>
        <time>2021-05-20T09:11:25.462Z</time>
      </trkpt>
      <trkpt lat="46.89449" lon="7.20365">
        <ele>514.8</ele>
        <time>2021-05-20T09:11:27.563Z</time>
      </trkpt>
      <trkpt lat="46.89439" lon="7.20415">
        <ele>513</ele>
        <time>2021-05-20T09:11:36.317Z</time>
      </trkpt>
      <trkpt lat="46.89433" lon="7.20464">
        <ele>511.3</ele>
        <time>2021-05-20T09:11:44.534Z</time>
      </trkpt>
      <trkpt lat="46.89417" lon="7.20514">
        <ele>510.1</ele>
        <time>2021-05-20T09:11:55.539Z</time>
      </trkpt>
      <trkpt lat="46.894" lon="7.20602">
        <ele>509</ele>
        <time>2021-05-20T09:12:16.881Z</time>
      </trkpt>
      <trkpt lat="46.89408" lon="7.20616">
        <ele>508.6</ele>
        <time>2021-05-20T09:12:20.408Z</time>
      </trkpt>
      <trkpt lat="46.89459" lon="7.20657">
        <ele>507.9</ele>
        <time>2021-05-20T09:12:41.782Z</time>
      </trkpt>
      <trkpt lat="46.89489" lon="7.20687">
        <ele>507.3</ele>
        <time>2021-05-20T09:12:54.285Z</time>
      </trkpt>
      <trkpt lat="46.89482" lon="7.20718">
        <ele>506.6</ele>
        <time>2021-05-20T09:13:00.866Z</time>
      </trkpt>
      <trkpt lat="46.89462" lon="7.20784">
        <ele>503.2</ele>
        <time>2021-05-20T09:13:12.435Z</time>
      </trkpt>
      <trkpt lat="46.8946" lon="7.20872">
        <ele>497.7</ele>
        <time>2021-05-20T09:13:26.517Z</time>
      </trkpt>
      <trkpt lat="46.89406" lon="7.21109">
        <ele>493.47</ele>
        <time>2021-05-20T09:14:20.449Z</time>
      </trkpt>
      <trkpt lat="46.89406" lon="7.21109">
        <ele>493.47000048199</ele>
        <time>2021-05-20T09:14:20.812Z</time>
      </trkpt>
      <trkpt lat="46.894" lon="7.21128">
        <ele>493.16999997436</ele>
        <time>2021-05-20T09:14:25.509Z</time>
      </trkpt>
      <trkpt lat="46.89396" lon="7.21139">
        <ele>492.65</ele>
        <time>2021-05-20T09:14:27.417Z</time>
      </trkpt>
      <trkpt lat="46.8939" lon="7.21153">
        <ele>492.11000002364</ele>
        <time>2021-05-20T09:14:30.245Z</time>
      </trkpt>
      <trkpt lat="46.89361" lon="7.21213">
        <ele>491.89999999285</ele>
        <time>2021-05-20T09:15:22.408Z</time>
      </trkpt>
      <trkpt lat="46.89356" lon="7.21223">
        <ele>491.71</ele>
        <time>2021-05-20T09:15:25.142Z</time>
      </trkpt>
      <trkpt lat="46.89353" lon="7.21235">
        <ele>491.74</ele>
        <time>2021-05-20T09:15:35.106Z</time>
      </trkpt>
      <trkpt lat="46.89351" lon="7.21243">
        <ele>491.68000000004</ele>
        <time>2021-05-20T09:15:37.287Z</time>
      </trkpt>
      <trkpt lat="46.89349" lon="7.21251">
        <ele>491.58</ele>
        <time>2021-05-20T09:15:39.287Z</time>
      </trkpt>
      <trkpt lat="46.89349" lon="7.2126">
        <ele>491.66000000019</ele>
        <time>2021-05-20T09:15:47.003Z</time>
      </trkpt>
      <trkpt lat="46.8935" lon="7.21265">
        <ele>491.66999999795</ele>
        <time>2021-05-20T09:15:51.042Z</time>
      </trkpt>
      <trkpt lat="46.89351" lon="7.21269">
        <ele>491.63000000362</ele>
        <time>2021-05-20T09:15:52.085Z</time>
      </trkpt>
      <trkpt lat="46.89352" lon="7.21273">
        <ele>491.73</ele>
        <time>2021-05-20T09:15:56.779Z</time>
      </trkpt>
      <trkpt lat="46.89355" lon="7.2128">
        <ele>491.55</ele>
        <time>2021-05-20T09:15:58.425Z</time>
      </trkpt>
      <trkpt lat="46.89358" lon="7.21285">
        <ele>491.65</ele>
        <time>2021-05-20T09:16:04.718Z</time>
      </trkpt>
      <trkpt lat="46.89363" lon="7.21291">
        <ele>491.55</ele>
        <time>2021-05-20T09:16:06.986Z</time>
      </trkpt>
      <trkpt lat="46.89382" lon="7.21311">
        <ele>491.81</ele>
        <time>2021-05-20T09:16:35.784Z</time>
      </trkpt>
      <trkpt lat="46.89397" lon="7.21326">
        <ele>491.73</ele>
        <time>2021-05-20T09:16:54.594Z</time>
      </trkpt>
      <trkpt lat="46.89411" lon="7.21339">
        <ele>491.70999999961</ele>
        <time>2021-05-20T09:17:12.587Z</time>
      </trkpt>
      <trkpt lat="46.89424" lon="7.21354">
        <ele>491.55</ele>
        <time>2021-05-20T09:17:18.843Z</time>
      </trkpt>
      <trkpt lat="46.89437" lon="7.21367">
        <ele>491.14</ele>
        <time>2021-05-20T09:17:23.727Z</time>
      </trkpt>
      <trkpt lat="46.89447" lon="7.21375">
        <ele>490.9</ele>
        <time>2021-05-20T09:17:27.465Z</time>
      </trkpt>
      <trkpt lat="46.89467" lon="7.21397">
        <ele>490.50000000302</ele>
        <time>2021-05-20T09:17:36.185Z</time>
      </trkpt>
      <trkpt lat="46.89469" lon="7.21383">
        <ele>490.93999998351</ele>
        <time>2021-05-20T09:17:54.476Z</time>
      </trkpt>
      <trkpt lat="46.89468" lon="7.21363">
        <ele>491.23</ele>
        <time>2021-05-20T09:18:13.263Z</time>
      </trkpt>
      <trkpt lat="46.89469" lon="7.2136">
        <ele>491.29</ele>
        <time>2021-05-20T09:18:16.584Z</time>
      </trkpt>
      <trkpt lat="46.89471" lon="7.21354">
        <ele>491.19000000109</ele>
        <time>2021-05-20T09:18:18.066Z</time>
      </trkpt>
      <trkpt lat="46.89474" lon="7.21348">
        <ele>491.14</ele>
        <time>2021-05-20T09:18:19.981Z</time>
      </trkpt>
      <trkpt lat="46.89474" lon="7.21345">
        <ele>491.21</ele>
        <time>2021-05-20T09:18:23.278Z</time>
      </trkpt>
      <trkpt lat="46.89473" lon="7.21336">
        <ele>491.36999999934</ele>
        <time>2021-05-20T09:18:32.282Z</time>
      </trkpt>
      <trkpt lat="46.89471" lon="7.21322">
        <ele>490.82999999204</ele>
        <time>2021-05-20T09:18:34.579Z</time>
      </trkpt>
      <trkpt lat="46.89471" lon="7.21316">
        <ele>490.73000000681</ele>
        <time>2021-05-20T09:18:35.874Z</time>
      </trkpt>
      <trkpt lat="46.89472" lon="7.2131">
        <ele>490.73</ele>
        <time>2021-05-20T09:18:40.538Z</time>
      </trkpt>
      <trkpt lat="46.89478" lon="7.21293">
        <ele>490.73</ele>
        <time>2021-05-20T09:18:54.988Z</time>
      </trkpt>
      <trkpt lat="46.89485" lon="7.21274">
        <ele>490.51</ele>
        <time>2021-05-20T09:19:00.198Z</time>
      </trkpt>
      <trkpt lat="46.89487" lon="7.2127">
        <ele>490.46</ele>
        <time>2021-05-20T09:19:01.396Z</time>
      </trkpt>
      <trkpt lat="46.8949" lon="7.21269">
        <ele>490.21</ele>
        <time>2021-05-20T09:19:02.117Z</time>
      </trkpt>
      <trkpt lat="46.89493" lon="7.21268">
        <ele>490.27</ele>
        <time>2021-05-20T09:19:06.257Z</time>
      </trkpt>
      <trkpt lat="46.89498" lon="7.21266">
        <ele>490.03</ele>
        <time>2021-05-20T09:19:07.573Z</time>
      </trkpt>
      <trkpt lat="46.89503" lon="7.21263">
        <ele>490.04</ele>
        <time>2021-05-20T09:19:13.648Z</time>
      </trkpt>
      <trkpt lat="46.89505" lon="7.21263">
        <ele>489.9700000151</ele>
        <time>2021-05-20T09:19:14.213Z</time>
      </trkpt>
      <trkpt lat="46.8951" lon="7.21264">
        <ele>490.2</ele>
        <time>2021-05-20T09:19:23.691Z</time>
      </trkpt>
      <trkpt lat="46.89513" lon="7.21264">
        <ele>489.99999999685</ele>
        <time>2021-05-20T09:19:24.335Z</time>
      </trkpt>
      <trkpt lat="46.89516" lon="7.21264">
        <ele>489.88</ele>
        <time>2021-05-20T09:19:25.142Z</time>
      </trkpt>
      <trkpt lat="46.89525" lon="7.2126">
        <ele>489.66</ele>
        <time>2021-05-20T09:19:28.146Z</time>
      </trkpt>
      <trkpt lat="46.8953" lon="7.2126">
        <ele>489.66</ele>
        <time>2021-05-20T09:19:33.672Z</time>
      </trkpt>
      <trkpt lat="46.89535" lon="7.21262">
        <ele>489.66</ele>
        <time>2021-05-20T09:19:39.401Z</time>
      </trkpt>
      <trkpt lat="46.89537" lon="7.21265">
        <ele>489.76</ele>
        <time>2021-05-20T09:19:44.055Z</time>
      </trkpt>
      <trkpt lat="46.89538" lon="7.21268">
        <ele>489.55000001938</ele>
        <time>2021-05-20T09:19:44.589Z</time>
      </trkpt>
      <trkpt lat="46.89538" lon="7.21273">
        <ele>489.44</ele>
        <time>2021-05-20T09:19:45.582Z</time>
      </trkpt>
      <trkpt lat="46.89538" lon="7.21282">
        <ele>489.33999998369</ele>
        <time>2021-05-20T09:19:47.718Z</time>
      </trkpt>
      <trkpt lat="46.8954" lon="7.2129">
        <ele>489.02</ele>
        <time>2021-05-20T09:19:49.089Z</time>
      </trkpt>
      <trkpt lat="46.89542" lon="7.21292">
        <ele>488.91</ele>
        <time>2021-05-20T09:19:49.709Z</time>
      </trkpt>
      <trkpt lat="46.89545" lon="7.21294">
        <ele>488.91</ele>
        <time>2021-05-20T09:19:53.352Z</time>
      </trkpt>
      <trkpt lat="46.89548" lon="7.21293">
        <ele>488.91</ele>
        <time>2021-05-20T09:19:56.753Z</time>
      </trkpt>
      <trkpt lat="46.89561" lon="7.21282">
        <ele>489.34</ele>
        <time>2021-05-20T09:20:19.250Z</time>
      </trkpt>
      <trkpt lat="46.89563" lon="7.21282">
        <ele>489.34</ele>
        <time>2021-05-20T09:20:21.461Z</time>
      </trkpt>
      <trkpt lat="46.89566" lon="7.21284">
        <ele>489.34</ele>
        <time>2021-05-20T09:20:25.104Z</time>
      </trkpt>
      <trkpt lat="46.8957" lon="7.21284">
        <ele>489.44</ele>
        <time>2021-05-20T09:20:30.838Z</time>
      </trkpt>
      <trkpt lat="46.89573" lon="7.21283">
        <ele>489.44</ele>
        <time>2021-05-20T09:20:34.239Z</time>
      </trkpt>
      <trkpt lat="46.89576" lon="7.21279">
        <ele>489.44</ele>
        <time>2021-05-20T09:20:38.724Z</time>
      </trkpt>
      <trkpt lat="46.89578" lon="7.21277">
        <ele>489.44</ele>
        <time>2021-05-20T09:20:41.401Z</time>
      </trkpt>
      <trkpt lat="46.89579" lon="7.21276">
        <ele>489.44</ele>
        <time>2021-05-20T09:20:42.740Z</time>
      </trkpt>
      <trkpt lat="46.89581" lon="7.21277">
        <ele>489.44</ele>
        <time>2021-05-20T09:20:45.076Z</time>
      </trkpt>
      <trkpt lat="46.89584" lon="7.21282">
        <ele>489.65999999466</ele>
        <time>2021-05-20T09:20:53.771Z</time>
      </trkpt>
      <trkpt lat="46.89589" lon="7.21284">
        <ele>489.75999999942</ele>
        <time>2021-05-20T09:21:00.729Z</time>
      </trkpt>
      <trkpt lat="46.89597" lon="7.21286">
        <ele>490.08</ele>
        <time>2021-05-20T09:21:14.770Z</time>
      </trkpt>
      <trkpt lat="46.896" lon="7.21288">
        <ele>490.18999998898</ele>
        <time>2021-05-20T09:21:20.017Z</time>
      </trkpt>
      <trkpt lat="46.89601" lon="7.2129">
        <ele>490.08000001243</ele>
        <time>2021-05-20T09:21:20.386Z</time>
      </trkpt>
      <trkpt lat="46.89603" lon="7.21295">
        <ele>489.87</ele>
        <time>2021-05-20T09:21:21.333Z</time>
      </trkpt>
      <trkpt lat="46.89605" lon="7.21304">
        <ele>489.44</ele>
        <time>2021-05-20T09:21:22.723Z</time>
      </trkpt>
      <trkpt lat="46.89606" lon="7.21304">
        <ele>489.28</ele>
        <time>2021-05-20T09:21:22.957Z</time>
      </trkpt>
      <trkpt lat="46.89606" lon="7.21305">
        <ele>489.28</ele>
        <time>2021-05-20T09:21:23.444Z</time>
      </trkpt>
      <trkpt lat="46.89606" lon="7.21304">
        <ele>489.28</ele>
        <time>2021-05-20T09:21:23.931Z</time>
      </trkpt>
      <trkpt lat="46.89608" lon="7.21307">
        <ele>489.1200000129</ele>
        <time>2021-05-20T09:21:24.600Z</time>
      </trkpt>
      <trkpt lat="46.89612" lon="7.21311">
        <ele>488.8</ele>
        <time>2021-05-20T09:21:25.645Z</time>
      </trkpt>
      <trkpt lat="46.89617" lon="7.2132">
        <ele>488.7</ele>
        <time>2021-05-20T09:21:28.527Z</time>
      </trkpt>
      <trkpt lat="46.8962" lon="7.21327">
        <ele>488.30999999626</ele>
        <time>2021-05-20T09:21:29.850Z</time>
      </trkpt>
      <trkpt lat="46.89621" lon="7.21332">
        <ele>488.23000000719</ele>
        <time>2021-05-20T09:21:30.998Z</time>
      </trkpt>
      <trkpt lat="46.89622" lon="7.2134">
        <ele>488.30999999276</ele>
        <time>2021-05-20T09:21:38.073Z</time>
      </trkpt>
      <trkpt lat="46.89622" lon="7.21343">
        <ele>488.23000001461</ele>
        <time>2021-05-20T09:21:38.630Z</time>
      </trkpt>
      <trkpt lat="46.89622" lon="7.21346">
        <ele>488.23</ele>
        <time>2021-05-20T09:21:40.896Z</time>
      </trkpt>
      <trkpt lat="46.89621" lon="7.21351">
        <ele>488.30999999581</ele>
        <time>2021-05-20T09:21:45.850Z</time>
      </trkpt>
      <trkpt lat="46.89618" lon="7.21356">
        <ele>488.23</ele>
        <time>2021-05-20T09:21:47.404Z</time>
      </trkpt>
      <trkpt lat="46.89616" lon="7.2136">
        <ele>488.23</ele>
        <time>2021-05-20T09:21:51.147Z</time>
      </trkpt>
      <trkpt lat="46.89613" lon="7.21365">
        <ele>488.16000000369</ele>
        <time>2021-05-20T09:21:52.743Z</time>
      </trkpt>
      <trkpt lat="46.89608" lon="7.2137">
        <ele>488.16</ele>
        <time>2021-05-20T09:21:59.436Z</time>
      </trkpt>
      <trkpt lat="46.89606" lon="7.21372">
        <ele>488.23</ele>
        <time>2021-05-20T09:22:03.077Z</time>
      </trkpt>
      <trkpt lat="46.89606" lon="7.21374">
        <ele>488.13</ele>
        <time>2021-05-20T09:22:03.397Z</time>
      </trkpt>
      <trkpt lat="46.89609" lon="7.21381">
        <ele>488.10000000234</ele>
        <time>2021-05-20T09:22:09.168Z</time>
      </trkpt>
      <trkpt lat="46.89615" lon="7.21388">
        <ele>487.96</ele>
        <time>2021-05-20T09:22:11.770Z</time>
      </trkpt>
      <trkpt lat="46.89619" lon="7.21394">
        <ele>487.95000000003</ele>
        <time>2021-05-20T09:22:17.936Z</time>
      </trkpt>
      <trkpt lat="46.89623" lon="7.21402">
        <ele>488.08999999545</ele>
        <time>2021-05-20T09:22:27.170Z</time>
      </trkpt>
      <trkpt lat="46.89629" lon="7.2142">
        <ele>487.94</ele>
        <time>2021-05-20T09:22:32.254Z</time>
      </trkpt>
      <trkpt lat="46.8963" lon="7.21424">
        <ele>488.01</ele>
        <time>2021-05-20T09:22:36.380Z</time>
      </trkpt>
      <trkpt lat="46.89633" lon="7.21428">
        <ele>487.99</ele>
        <time>2021-05-20T09:22:40.550Z</time>
      </trkpt>
      <trkpt lat="46.89635" lon="7.2143">
        <ele>487.95000000231</ele>
        <time>2021-05-20T09:22:41.389Z</time>
      </trkpt>
      <trkpt lat="46.89639" lon="7.21433">
        <ele>487.78000000037</ele>
        <time>2021-05-20T09:22:42.624Z</time>
      </trkpt>
      <trkpt lat="46.89642" lon="7.21435">
        <ele>487.84999999801</ele>
        <time>2021-05-20T09:22:47.147Z</time>
      </trkpt>
      <trkpt lat="46.89645" lon="7.21438">
        <ele>487.82</ele>
        <time>2021-05-20T09:22:48.546Z</time>
      </trkpt>
      <trkpt lat="46.89647" lon="7.21443">
        <ele>487.88999999115</ele>
        <time>2021-05-20T09:22:53.768Z</time>
      </trkpt>
      <trkpt lat="46.89647" lon="7.2145">
        <ele>487.85</ele>
        <time>2021-05-20T09:22:55.607Z</time>
      </trkpt>
      <trkpt lat="46.89646" lon="7.21459">
        <ele>488.3</ele>
        <time>2021-05-20T09:23:09.700Z</time>
      </trkpt>
      <trkpt lat="46.89643" lon="7.21472">
        <ele>488.38999999056</ele>
        <time>2021-05-20T09:23:21.062Z</time>
      </trkpt>
      <trkpt lat="46.89638" lon="7.21481">
        <ele>488.18</ele>
        <time>2021-05-20T09:23:23.508Z</time>
      </trkpt>
      <trkpt lat="46.89635" lon="7.21492">
        <ele>488.50999998647</ele>
        <time>2021-05-20T09:23:37.785Z</time>
      </trkpt>
      <trkpt lat="46.8962" lon="7.21521">
        <ele>488.8</ele>
        <time>2021-05-20T09:24:08.540Z</time>
      </trkpt>
      <trkpt lat="46.89611" lon="7.21535">
        <ele>489.07000000022</ele>
        <time>2021-05-20T09:24:26.424Z</time>
      </trkpt>
      <trkpt lat="46.89605" lon="7.21543">
        <ele>489.11</ele>
        <time>2021-05-20T09:24:35.819Z</time>
      </trkpt>
      <trkpt lat="46.89616" lon="7.21555">
        <ele>489.22</ele>
        <time>2021-05-20T09:24:52.185Z</time>
      </trkpt>
      <trkpt lat="46.8963" lon="7.21569">
        <ele>489.21</ele>
        <time>2021-05-20T09:25:10.758Z</time>
      </trkpt>
      <trkpt lat="46.89645" lon="7.21583">
        <ele>489.15000000019</ele>
        <time>2021-05-20T09:25:29.454Z</time>
      </trkpt>
      <trkpt lat="46.89665" lon="7.21604">
        <ele>488.96</ele>
        <time>2021-05-20T09:25:39.005Z</time>
      </trkpt>
      <trkpt lat="46.89679" lon="7.21618">
        <ele>489.0099999993</ele>
        <time>2021-05-20T09:25:58.266Z</time>
      </trkpt>
      <trkpt lat="46.89705" lon="7.21646">
        <ele>489.1</ele>
        <time>2021-05-20T09:26:34.878Z</time>
      </trkpt>
      <trkpt lat="46.89724" lon="7.21664">
        <ele>489.19</ele>
        <time>2021-05-20T09:27:00.839Z</time>
      </trkpt>
      <trkpt lat="46.89726" lon="7.21667">
        <ele>489.1999999985</ele>
        <time>2021-05-20T09:27:04.109Z</time>
      </trkpt>
      <trkpt lat="46.8974" lon="7.21683">
        <ele>489.14</ele>
        <time>2021-05-20T09:27:22.775Z</time>
      </trkpt>
      <trkpt lat="46.89743" lon="7.21688">
        <ele>489.11</ele>
        <time>2021-05-20T09:27:27.339Z</time>
      </trkpt>
      <trkpt lat="46.89751" lon="7.21697">
        <ele>489.2</ele>
        <time>2021-05-20T09:27:39.483Z</time>
      </trkpt>
      <trkpt lat="46.89753" lon="7.21699">
        <ele>489.21999999671</ele>
        <time>2021-05-20T09:27:42.379Z</time>
      </trkpt>
      <trkpt lat="46.89754" lon="7.217">
        <ele>489.20000000702</ele>
        <time>2021-05-20T09:27:42.799Z</time>
      </trkpt>
      <trkpt lat="46.89759" lon="7.21704">
        <ele>489.11</ele>
        <time>2021-05-20T09:27:44.789Z</time>
      </trkpt>
      <trkpt lat="46.89764" lon="7.2171">
        <ele>488.93</ele>
        <time>2021-05-20T09:27:46.756Z</time>
      </trkpt>
      <trkpt lat="46.89766" lon="7.21711">
        <ele>488.88</ele>
        <time>2021-05-20T09:27:47.429Z</time>
      </trkpt>
      <trkpt lat="46.89776" lon="7.21722">
        <ele>488.67000000677</ele>
        <time>2021-05-20T09:27:51.746Z</time>
      </trkpt>
      <trkpt lat="46.89794" lon="7.2174">
        <ele>488.7099999968</ele>
        <time>2021-05-20T09:28:16.253Z</time>
      </trkpt>
      <trkpt lat="46.8981" lon="7.21757">
        <ele>488.54</ele>
        <time>2021-05-20T09:28:23.833Z</time>
      </trkpt>
      <trkpt lat="46.89825" lon="7.21771">
        <ele>488.76999999781</ele>
        <time>2021-05-20T09:28:46.137Z</time>
      </trkpt>
      <trkpt lat="46.89849" lon="7.21795">
        <ele>488.95999999749</ele>
        <time>2021-05-20T09:29:20.309Z</time>
      </trkpt>
      <trkpt lat="46.89956" lon="7.21901">
        <ele>488.92</ele>
        <time>2021-05-20T09:31:42.439Z</time>
      </trkpt>
      <trkpt lat="46.89971" lon="7.21916">
        <ele>488.71</ele>
        <time>2021-05-20T09:31:49.135Z</time>
      </trkpt>
      <trkpt lat="46.90013" lon="7.21959">
        <ele>487.84000000369</ele>
        <time>2021-05-20T09:32:06.784Z</time>
      </trkpt>
      <trkpt lat="46.90016" lon="7.21961">
        <ele>487.87999999849</ele>
        <time>2021-05-20T09:32:10.883Z</time>
      </trkpt>
      <trkpt lat="46.90027" lon="7.21972">
        <ele>488.30999999052</ele>
        <time>2021-05-20T09:32:31.788Z</time>
      </trkpt>
      <trkpt lat="46.90038" lon="7.21984">
        <ele>488.2400000011</ele>
        <time>2021-05-20T09:32:45.851Z</time>
      </trkpt>
      <trkpt lat="46.90051" lon="7.21996">
        <ele>488.17</ele>
        <time>2021-05-20T09:33:01.730Z</time>
      </trkpt>
      <trkpt lat="46.90071" lon="7.22015">
        <ele>487.96</ele>
        <time>2021-05-20T09:33:10.845Z</time>
      </trkpt>
      <trkpt lat="46.90085" lon="7.22029">
        <ele>487.42000000024</ele>
        <time>2021-05-20T09:33:15.790Z</time>
      </trkpt>
      <trkpt lat="46.90104" lon="7.22049">
        <ele>487.47999999972</ele>
        <time>2021-05-20T09:33:42.278Z</time>
      </trkpt>
      <trkpt lat="46.90125" lon="7.2207">
        <ele>488.40999999514</ele>
        <time>2021-05-20T09:34:24.544Z</time>
      </trkpt>
      <trkpt lat="46.90165" lon="7.22109">
        <ele>487.73000000049</ele>
        <time>2021-05-20T09:34:41.682Z</time>
      </trkpt>
      <trkpt lat="46.902" lon="7.22146">
        <ele>487.83</ele>
        <time>2021-05-20T09:35:30.435Z</time>
      </trkpt>
      <trkpt lat="46.90201" lon="7.22146">
        <ele>487.7</ele>
        <time>2021-05-20T09:35:30.746Z</time>
      </trkpt>
      <trkpt lat="46.90263" lon="7.22221">
        <ele>487.3</ele>
        <time>2021-05-20T09:36:53.191Z</time>
      </trkpt>
      <trkpt lat="46.9027" lon="7.22223">
        <ele>487.3</ele>
        <time>2021-05-20T09:37:01.206Z</time>
      </trkpt>
      <trkpt lat="46.90272" lon="7.22235">
        <ele>487</ele>
        <time>2021-05-20T09:37:03.511Z</time>
      </trkpt>
      <trkpt lat="46.90296" lon="7.22272">
        <ele>487.1</ele>
        <time>2021-05-20T09:37:43.877Z</time>
      </trkpt>
      <trkpt lat="46.90336" lon="7.22363">
        <ele>487.1</ele>
        <time>2021-05-20T09:39:05.055Z</time>
      </trkpt>
      <trkpt lat="46.9035" lon="7.22405">
        <ele>487</ele>
        <time>2021-05-20T09:39:38.918Z</time>
      </trkpt>
      <trkpt lat="46.90371" lon="7.22483">
        <ele>486.3</ele>
        <time>2021-05-20T09:40:00.005Z</time>
      </trkpt>
      <trkpt lat="46.90375" lon="7.22518">
        <ele>486.2</ele>
        <time>2021-05-20T09:40:24.487Z</time>
      </trkpt>
      <trkpt lat="46.90368" lon="7.22548">
        <ele>485.9</ele>
        <time>2021-05-20T09:40:32.317Z</time>
      </trkpt>
      <trkpt lat="46.90367" lon="7.22564">
        <ele>485.7</ele>
        <time>2021-05-20T09:40:35.966Z</time>
      </trkpt>
      <trkpt lat="46.9037" lon="7.22645">
        <ele>484.8</ele>
        <time>2021-05-20T09:40:55.342Z</time>
      </trkpt>
      <trkpt lat="46.90369" lon="7.22675">
        <ele>484.6</ele>
        <time>2021-05-20T09:41:03.166Z</time>
      </trkpt>
      <trkpt lat="46.90379" lon="7.22758">
        <ele>484.8</ele>
        <time>2021-05-20T09:42:08.645Z</time>
      </trkpt>
      <trkpt lat="46.904" lon="7.22874">
        <ele>485</ele>
        <time>2021-05-20T09:43:41.835Z</time>
      </trkpt>
      <trkpt lat="46.90411" lon="7.22995">
        <ele>484.6</ele>
        <time>2021-05-20T09:45:07.481Z</time>
      </trkpt>
      <trkpt lat="46.90419" lon="7.23046">
        <ele>484.3</ele>
        <time>2021-05-20T09:45:21.288Z</time>
      </trkpt>
      <trkpt lat="46.90436" lon="7.23096">
        <ele>484.8</ele>
        <time>2021-05-20T09:46:09.173Z</time>
      </trkpt>
      <trkpt lat="46.90459" lon="7.23145">
        <ele>484.8</ele>
        <time>2021-05-20T09:46:53.472Z</time>
      </trkpt>
      <trkpt lat="46.90471" lon="7.23154">
        <ele>484.7</ele>
        <time>2021-05-20T09:47:07.496Z</time>
      </trkpt>
      <trkpt lat="46.90477" lon="7.23173">
        <ele>484.4</ele>
        <time>2021-05-20T09:47:12.270Z</time>
      </trkpt>
      <trkpt lat="46.90528" lon="7.23199">
        <ele>485.6</ele>
        <time>2021-05-20T09:48:27.535Z</time>
      </trkpt>
      <trkpt lat="46.90553" lon="7.23186">
        <ele>490</ele>
        <time>2021-05-20T09:50:21.507Z</time>
      </trkpt>
      <trkpt lat="46.90552" lon="7.23171">
        <ele>502.7</ele>
        <time>2021-05-20T09:51:07.539Z</time>
      </trkpt>
      <trkpt lat="46.90558" lon="7.23164">
        <ele>506.3</ele>
        <time>2021-05-20T09:51:37.450Z</time>
      </trkpt>
      <trkpt lat="46.90572" lon="7.2316">
        <ele>507.9</ele>
        <time>2021-05-20T09:52:23.714Z</time>
      </trkpt>
      <trkpt lat="46.90583" lon="7.23164">
        <ele>510.2</ele>
        <time>2021-05-20T09:53:11.138Z</time>
      </trkpt>
      <trkpt lat="46.90613" lon="7.2319">
        <ele>512.1</ele>
        <time>2021-05-20T09:54:21.305Z</time>
      </trkpt>
      <trkpt lat="46.90635" lon="7.23202">
        <ele>513</ele>
        <time>2021-05-20T09:55:00.963Z</time>
      </trkpt>
      <trkpt lat="46.90647" lon="7.23213">
        <ele>514.8</ele>
        <time>2021-05-20T09:55:56.151Z</time>
      </trkpt>
      <trkpt lat="46.90651" lon="7.23228">
        <ele>516.8</ele>
        <time>2021-05-20T09:56:42.365Z</time>
      </trkpt>
      <trkpt lat="46.90663" lon="7.2324">
        <ele>522.5</ele>
        <time>2021-05-20T09:57:42.936Z</time>
      </trkpt>
      <trkpt lat="46.90669" lon="7.23238">
        <ele>524.1</ele>
        <time>2021-05-20T09:58:10.049Z</time>
      </trkpt>
      <trkpt lat="46.9068" lon="7.23212">
        <ele>526.7</ele>
        <time>2021-05-20T09:59:28.787Z</time>
      </trkpt>
      <trkpt lat="46.90699" lon="7.2322">
        <ele>529</ele>
        <time>2021-05-20T10:00:36.527Z</time>
      </trkpt>
      <trkpt lat="46.90724" lon="7.23217">
        <ele>528.1</ele>
        <time>2021-05-20T10:00:43.612Z</time>
      </trkpt>
      <trkpt lat="46.90754" lon="7.23182">
        <ele>531.9</ele>
        <time>2021-05-20T10:02:32.858Z</time>
      </trkpt>
      <trkpt lat="46.9084" lon="7.23207">
        <ele>527.5</ele>
        <time>2021-05-20T10:02:54.546Z</time>
      </trkpt>
      <trkpt lat="46.90871" lon="7.23205">
        <ele>526</ele>
        <time>2021-05-20T10:03:02.141Z</time>
      </trkpt>
      <trkpt lat="46.90914" lon="7.23185">
        <ele>520.5</ele>
        <time>2021-05-20T10:03:12.736Z</time>
      </trkpt>
      <trkpt lat="46.90917" lon="7.23205">
        <ele>518.8</ele>
        <time>2021-05-20T10:03:15.951Z</time>
      </trkpt>
      <trkpt lat="46.9091" lon="7.23226">
        <ele>516.6</ele>
        <time>2021-05-20T10:03:19.621Z</time>
      </trkpt>
      <trkpt lat="46.90886" lon="7.23265">
        <ele>510</ele>
        <time>2021-05-20T10:03:28.113Z</time>
      </trkpt>
      <trkpt lat="46.90871" lon="7.2328">
        <ele>508.8</ele>
        <time>2021-05-20T10:03:32.040Z</time>
      </trkpt>
      <trkpt lat="46.9081" lon="7.23313">
        <ele>500.8</ele>
        <time>2021-05-20T10:03:47.303Z</time>
      </trkpt>
      <trkpt lat="46.90808" lon="7.23317">
        <ele>499.5</ele>
        <time>2021-05-20T10:03:48.061Z</time>
      </trkpt>
      <trkpt lat="46.9084" lon="7.2333">
        <ele>486.8</ele>
        <time>2021-05-20T10:03:55.934Z</time>
      </trkpt>
      <trkpt lat="46.90857" lon="7.23341">
        <ele>484.8</ele>
        <time>2021-05-20T10:04:00.172Z</time>
      </trkpt>
      <trkpt lat="46.9087" lon="7.23362">
        <ele>484.8</ele>
        <time>2021-05-20T10:04:21.940Z</time>
      </trkpt>
      <trkpt lat="46.90876" lon="7.23366">
        <ele>484.3</ele>
        <time>2021-05-20T10:04:23.544Z</time>
      </trkpt>
      <trkpt lat="46.90912" lon="7.23369">
        <ele>484.5</ele>
        <time>2021-05-20T10:05:05.494Z</time>
      </trkpt>
      <trkpt lat="46.90922" lon="7.23365">
        <ele>484.2</ele>
        <time>2021-05-20T10:05:08.565Z</time>
      </trkpt>
      <trkpt lat="46.90951" lon="7.23365">
        <ele>484</ele>
        <time>2021-05-20T10:05:37.318Z</time>
      </trkpt>
      <trkpt lat="46.90995" lon="7.2337">
        <ele>483.5</ele>
        <time>2021-05-20T10:05:53.672Z</time>
      </trkpt>
      <trkpt lat="46.91005" lon="7.23347">
        <ele>484.4</ele>
        <time>2021-05-20T10:06:28.683Z</time>
      </trkpt>
      <trkpt lat="46.91016" lon="7.23345">
        <ele>484.8</ele>
        <time>2021-05-20T10:06:46.865Z</time>
      </trkpt>
      <trkpt lat="46.91067" lon="7.23354">
        <ele>484.7</ele>
        <time>2021-05-20T10:07:42.311Z</time>
      </trkpt>
      <trkpt lat="46.91145" lon="7.2338">
        <ele>484.6</ele>
        <time>2021-05-20T10:09:09.385Z</time>
      </trkpt>
      <trkpt lat="46.91248" lon="7.23425">
        <ele>484</ele>
        <time>2021-05-20T10:10:58.552Z</time>
      </trkpt>
      <trkpt lat="46.91254" lon="7.23443">
        <ele>482.6</ele>
        <time>2021-05-20T10:11:01.843Z</time>
      </trkpt>
      <trkpt lat="46.91262" lon="7.23449">
        <ele>482.8</ele>
        <time>2021-05-20T10:11:14.182Z</time>
      </trkpt>
      <trkpt lat="46.91269" lon="7.2346">
        <ele>482.4</ele>
        <time>2021-05-20T10:11:16.960Z</time>
      </trkpt>
      <trkpt lat="46.91288" lon="7.2348">
        <ele>481.6</ele>
        <time>2021-05-20T10:11:23.542Z</time>
      </trkpt>
      <trkpt lat="46.91337" lon="7.23519">
        <ele>482.4</ele>
        <time>2021-05-20T10:12:35.093Z</time>
      </trkpt>
      <trkpt lat="46.91334" lon="7.23506">
        <ele>485.3</ele>
        <time>2021-05-20T10:13:16.282Z</time>
      </trkpt>
      <trkpt lat="46.91336" lon="7.235">
        <ele>486.7</ele>
        <time>2021-05-20T10:13:38.590Z</time>
      </trkpt>
      <trkpt lat="46.91325" lon="7.23486">
        <ele>487.2</ele>
        <time>2021-05-20T10:14:02.221Z</time>
      </trkpt>
      <trkpt lat="46.91272" lon="7.23615">
        <ele>487</ele>
        <time>2021-05-20T10:15:52.394Z</time>
      </trkpt>
      <trkpt lat="46.91258" lon="7.23605">
        <ele>485.1</ele>
        <time>2021-05-20T10:15:55.974Z</time>
      </trkpt>
      <trkpt lat="46.91204" lon="7.23585">
        <ele>485.2</ele>
        <time>2021-05-20T10:16:58.478Z</time>
      </trkpt>
      <trkpt lat="46.91006" lon="7.2357">
        <ele>485.2</ele>
        <time>2021-05-20T10:20:37.519Z</time>
      </trkpt>
      <trkpt lat="46.90998" lon="7.23578">
        <ele>485.1</ele>
        <time>2021-05-20T10:20:41.163Z</time>
      </trkpt>
      <trkpt lat="46.90975" lon="7.23569">
        <ele>485.2</ele>
        <time>2021-05-20T10:21:08.978Z</time>
      </trkpt>
      <trkpt lat="46.9098" lon="7.23471">
        <ele>486.2</ele>
        <time>2021-05-20T10:22:35.260Z</time>
      </trkpt>
      <trkpt lat="46.90738" lon="7.23444">
        <ele>486.29</ele>
        <time>2021-05-20T10:27:04.416Z</time>
      </trkpt>
      <trkpt lat="46.90737" lon="7.23444">
        <ele>486.28999997089</ele>
        <time>2021-05-20T10:27:05.526Z</time>
      </trkpt>
      <trkpt lat="46.90732" lon="7.23442">
        <ele>486.28</ele>
        <time>2021-05-20T10:27:11.090Z</time>
      </trkpt>
      <trkpt lat="46.90727" lon="7.23441">
        <ele>486.29999999989</ele>
        <time>2021-05-20T10:27:16.878Z</time>
      </trkpt>
      <trkpt lat="46.90705" lon="7.23431">
        <ele>486.03000000325</ele>
        <time>2021-05-20T10:27:25.351Z</time>
      </trkpt>
      <trkpt lat="46.90679" lon="7.23423">
        <ele>486.26999999925</ele>
        <time>2021-05-20T10:27:57.363Z</time>
      </trkpt>
      <trkpt lat="46.90673" lon="7.23421">
        <ele>486.25</ele>
        <time>2021-05-20T10:28:03.842Z</time>
      </trkpt>
      <trkpt lat="46.90671" lon="7.23421">
        <ele>485.85000000103</ele>
        <time>2021-05-20T10:28:04.310Z</time>
      </trkpt>
      <trkpt lat="46.90666" lon="7.23424">
        <ele>486.22</ele>
        <time>2021-05-20T10:28:16.191Z</time>
      </trkpt>
      <trkpt lat="46.90664" lon="7.2342">
        <ele>486.07</ele>
        <time>2021-05-20T10:28:17.067Z</time>
      </trkpt>
      <trkpt lat="46.90661" lon="7.23417">
        <ele>486</ele>
        <time>2021-05-20T10:28:18.284Z</time>
      </trkpt>
      <trkpt lat="46.90657" lon="7.23414">
        <ele>485.92999999038</ele>
        <time>2021-05-20T10:28:19.858Z</time>
      </trkpt>
      <trkpt lat="46.90654" lon="7.23413">
        <ele>485.86000000523</ele>
        <time>2021-05-20T10:28:20.848Z</time>
      </trkpt>
      <trkpt lat="46.90651" lon="7.23412">
        <ele>485.85</ele>
        <time>2021-05-20T10:28:24.087Z</time>
      </trkpt>
      <trkpt lat="46.90646" lon="7.2341">
        <ele>485.86</ele>
        <time>2021-05-20T10:28:29.919Z</time>
      </trkpt>
      <trkpt lat="46.90632" lon="7.23407">
        <ele>486.08000000008</ele>
        <time>2021-05-20T10:28:48.154Z</time>
      </trkpt>
      <trkpt lat="46.90628" lon="7.23407">
        <ele>486.13</ele>
        <time>2021-05-20T10:28:53.147Z</time>
      </trkpt>
      <trkpt lat="46.90626" lon="7.23408">
        <ele>486.08000000172</ele>
        <time>2021-05-20T10:28:53.820Z</time>
      </trkpt>
      <trkpt lat="46.90623" lon="7.2341">
        <ele>486.05000000174</ele>
        <time>2021-05-20T10:28:55.075Z</time>
      </trkpt>
      <trkpt lat="46.90607" lon="7.23426">
        <ele>486.05000000102</ele>
        <time>2021-05-20T10:29:16.491Z</time>
      </trkpt>
      <trkpt lat="46.90595" lon="7.23438">
        <ele>486.46</ele>
        <time>2021-05-20T10:29:38.151Z</time>
      </trkpt>
      <trkpt lat="46.90592" lon="7.23441">
        <ele>486.28000000655</ele>
        <time>2021-05-20T10:29:39.047Z</time>
      </trkpt>
      <trkpt lat="46.90587" lon="7.23447">
        <ele>486.47</ele>
        <time>2021-05-20T10:29:48.825Z</time>
      </trkpt>
      <trkpt lat="46.90581" lon="7.23454">
        <ele>486.37000000192</ele>
        <time>2021-05-20T10:29:51.599Z</time>
      </trkpt>
      <trkpt lat="46.90567" lon="7.23471">
        <ele>486.75</ele>
        <time>2021-05-20T10:30:16.461Z</time>
      </trkpt>
      <trkpt lat="46.90557" lon="7.23483">
        <ele>487.30999999628</ele>
        <time>2021-05-20T10:30:40.150Z</time>
      </trkpt>
      <trkpt lat="46.90525" lon="7.23516">
        <ele>487.25000001086</ele>
        <time>2021-05-20T10:31:22.420Z</time>
      </trkpt>
      <trkpt lat="46.90517" lon="7.23525">
        <ele>487.50999999171</ele>
        <time>2021-05-20T10:31:37.018Z</time>
      </trkpt>
      <trkpt lat="46.90505" lon="7.23537">
        <ele>487.73000000991</ele>
        <time>2021-05-20T10:31:55.666Z</time>
      </trkpt>
      <trkpt lat="46.90502" lon="7.23539">
        <ele>487.86999999706</ele>
        <time>2021-05-20T10:32:01.629Z</time>
      </trkpt>
      <trkpt lat="46.90505" lon="7.23546">
        <ele>487.88999999881</ele>
        <time>2021-05-20T10:32:08.078Z</time>
      </trkpt>
      <trkpt lat="46.90509" lon="7.23556">
        <ele>487.82999999546</ele>
        <time>2021-05-20T10:32:11.155Z</time>
      </trkpt>
      <trkpt lat="46.90513" lon="7.23565">
        <ele>487.61000000028</ele>
        <time>2021-05-20T10:32:13.336Z</time>
      </trkpt>
      <trkpt lat="46.90519" lon="7.23578">
        <ele>487.44000001736</ele>
        <time>2021-05-20T10:32:17.077Z</time>
      </trkpt>
      <trkpt lat="46.90522" lon="7.23588">
        <ele>487.85</ele>
        <time>2021-05-20T10:32:31.980Z</time>
      </trkpt>
      <trkpt lat="46.90516" lon="7.23592">
        <ele>487.85</ele>
        <time>2021-05-20T10:32:39.267Z</time>
      </trkpt>
      <trkpt lat="46.90501" lon="7.23604">
        <ele>487.97999999897</ele>
        <time>2021-05-20T10:32:59.574Z</time>
      </trkpt>
      <trkpt lat="46.90461" lon="7.23637">
        <ele>487.17</ele>
        <time>2021-05-20T10:33:15.257Z</time>
      </trkpt>
      <trkpt lat="46.9045" lon="7.23647">
        <ele>486.92999999813</ele>
        <time>2021-05-20T10:33:19.633Z</time>
      </trkpt>
      <trkpt lat="46.90444" lon="7.23653">
        <ele>486.70000000118</ele>
        <time>2021-05-20T10:33:21.756Z</time>
      </trkpt>
      <trkpt lat="46.9044" lon="7.23658">
        <ele>486.73999999682</ele>
        <time>2021-05-20T10:33:28.005Z</time>
      </trkpt>
      <trkpt lat="46.90436" lon="7.23664">
        <ele>486.7</ele>
        <time>2021-05-20T10:33:33.723Z</time>
      </trkpt>
      <trkpt lat="46.90431" lon="7.2367">
        <ele>486.58000000715</ele>
        <time>2021-05-20T10:33:35.908Z</time>
      </trkpt>
      <trkpt lat="46.90428" lon="7.23674">
        <ele>486.68</ele>
        <time>2021-05-20T10:33:41.700Z</time>
      </trkpt>
      <trkpt lat="46.90424" lon="7.23682">
        <ele>486.53999999954</ele>
        <time>2021-05-20T10:33:43.932Z</time>
      </trkpt>
      <trkpt lat="46.90421" lon="7.23689">
        <ele>486.51</ele>
        <time>2021-05-20T10:33:49.702Z</time>
      </trkpt>
      <trkpt lat="46.90418" lon="7.23696">
        <ele>486.54999999918</ele>
        <time>2021-05-20T10:33:56.375Z</time>
      </trkpt>
      <trkpt lat="46.90415" lon="7.23704">
        <ele>486.70000000193</ele>
        <time>2021-05-20T10:34:05.213Z</time>
      </trkpt>
      <trkpt lat="46.90413" lon="7.23711">
        <ele>486.74</ele>
        <time>2021-05-20T10:34:11.378Z</time>
      </trkpt>
      <trkpt lat="46.90414" lon="7.23712">
        <ele>486.74</ele>
        <time>2021-05-20T10:34:12.247Z</time>
      </trkpt>
      <trkpt lat="46.90413" lon="7.23711">
        <ele>486.74</ele>
        <time>2021-05-20T10:34:13.116Z</time>
      </trkpt>
      <trkpt lat="46.9041" lon="7.23721">
        <ele>486.79</ele>
        <time>2021-05-20T10:34:21.902Z</time>
      </trkpt>
      <trkpt lat="46.9041" lon="7.23722">
        <ele>486.79</ele>
        <time>2021-05-20T10:34:22.658Z</time>
      </trkpt>
      <trkpt lat="46.90401" lon="7.23751">
        <ele>487.03999999741</ele>
        <time>2021-05-20T10:34:49.538Z</time>
      </trkpt>
      <trkpt lat="46.9039" lon="7.23783">
        <ele>487.31000000066</ele>
        <time>2021-05-20T10:35:19.628Z</time>
      </trkpt>
      <trkpt lat="46.90387" lon="7.23792">
        <ele>487.46</ele>
        <time>2021-05-20T10:35:29.090Z</time>
      </trkpt>
      <trkpt lat="46.90387" lon="7.23793">
        <ele>487.46</ele>
        <time>2021-05-20T10:35:29.777Z</time>
      </trkpt>
      <trkpt lat="46.90387" lon="7.23792">
        <ele>487.46</ele>
        <time>2021-05-20T10:35:30.464Z</time>
      </trkpt>
      <trkpt lat="46.90381" lon="7.23809">
        <ele>487.60999999713</ele>
        <time>2021-05-20T10:35:46.609Z</time>
      </trkpt>
      <trkpt lat="46.90374" lon="7.23828">
        <ele>487.65</ele>
        <time>2021-05-20T10:36:03.324Z</time>
      </trkpt>
      <trkpt lat="46.90368" lon="7.23843">
        <ele>487.95</ele>
        <time>2021-05-20T10:36:20.401Z</time>
      </trkpt>
      <trkpt lat="46.90364" lon="7.23851">
        <ele>488.04000000717</ele>
        <time>2021-05-20T10:36:28.924Z</time>
      </trkpt>
      <trkpt lat="46.9036" lon="7.23858">
        <ele>488.13999999788</ele>
        <time>2021-05-20T10:36:37.002Z</time>
      </trkpt>
      <trkpt lat="46.90354" lon="7.23869">
        <ele>488.45</ele>
        <time>2021-05-20T10:36:52.084Z</time>
      </trkpt>
      <trkpt lat="46.90349" lon="7.23876">
        <ele>488.62</ele>
        <time>2021-05-20T10:37:01.952Z</time>
      </trkpt>
      <trkpt lat="46.90347" lon="7.23878">
        <ele>488.67</ele>
        <time>2021-05-20T10:37:05.253Z</time>
      </trkpt>
      <trkpt lat="46.90348" lon="7.23878">
        <ele>488.67</ele>
        <time>2021-05-20T10:37:06.212Z</time>
      </trkpt>
      <trkpt lat="46.90347" lon="7.23878">
        <ele>488.67</ele>
        <time>2021-05-20T10:37:07.172Z</time>
      </trkpt>
      <trkpt lat="46.90342" lon="7.23883">
        <ele>488.71</ele>
        <time>2021-05-20T10:37:14.295Z</time>
      </trkpt>
      <trkpt lat="46.90336" lon="7.23889">
        <ele>488.98000000193</ele>
        <time>2021-05-20T10:37:26.470Z</time>
      </trkpt>
      <trkpt lat="46.90331" lon="7.23892">
        <ele>489.01000000908</ele>
        <time>2021-05-20T10:37:32.763Z</time>
      </trkpt>
      <trkpt lat="46.90327" lon="7.23895">
        <ele>489.13999999294</ele>
        <time>2021-05-20T10:37:39.521Z</time>
      </trkpt>
      <trkpt lat="46.9032" lon="7.23899">
        <ele>489.17000000789</ele>
        <time>2021-05-20T10:37:48.141Z</time>
      </trkpt>
      <trkpt lat="46.90317" lon="7.23901">
        <ele>489.2999999957</ele>
        <time>2021-05-20T10:37:53.845Z</time>
      </trkpt>
      <trkpt lat="46.90307" lon="7.23904">
        <ele>489.27000000074</ele>
        <time>2021-05-20T10:38:04.641Z</time>
      </trkpt>
      <trkpt lat="46.90295" lon="7.23907">
        <ele>489.2</ele>
        <time>2021-05-20T10:38:17.006Z</time>
      </trkpt>
      <trkpt lat="46.90283" lon="7.2391">
        <ele>489.19</ele>
        <time>2021-05-20T10:38:30.294Z</time>
      </trkpt>
      <trkpt lat="46.90283" lon="7.2391">
        <ele>489.19</ele>
        <time>2021-05-20T10:38:30.294Z</time>
      </trkpt>
      <trkpt lat="46.90283" lon="7.2391">
        <ele>489.19</ele>
        <time>2021-05-20T10:38:30.721Z</time>
      </trkpt>
      <trkpt lat="46.90283" lon="7.2391">
        <ele>489.19</ele>
        <time>2021-05-20T10:38:31.148Z</time>
      </trkpt>
      <trkpt lat="46.90283" lon="7.2391">
        <ele>489.19</ele>
        <time>2021-05-20T10:38:31.148Z</time>
      </trkpt>
      <trkpt lat="46.90283" lon="7.23925">
        <ele>489.36999999417</ele>
        <time>2021-05-20T10:38:44.646Z</time>
      </trkpt>
      <trkpt lat="46.90284" lon="7.23943">
        <ele>489.86</ele>
        <time>2021-05-20T10:39:06.080Z</time>
      </trkpt>
      <trkpt lat="46.90284" lon="7.23953">
        <ele>489.86</ele>
        <time>2021-05-20T10:39:13.631Z</time>
      </trkpt>
      <trkpt lat="46.90285" lon="7.23969">
        <ele>490.47999999306</ele>
        <time>2021-05-20T10:39:35.786Z</time>
      </trkpt>
      <trkpt lat="46.90285" lon="7.24006">
        <ele>491.92000001103</ele>
        <time>2021-05-20T10:40:26.976Z</time>
      </trkpt>
      <trkpt lat="46.90286" lon="7.24015">
        <ele>492.2</ele>
        <time>2021-05-20T10:40:38.629Z</time>
      </trkpt>
      <trkpt lat="46.90286" lon="7.24015">
        <ele>492.2</ele>
        <time>2021-05-20T10:40:38.743Z</time>
      </trkpt>
      <trkpt lat="46.90286" lon="7.24015">
        <ele>492.2</ele>
        <time>2021-05-20T10:40:38.857Z</time>
      </trkpt>
      <trkpt lat="46.90286" lon="7.24018">
        <ele>492.48</ele>
        <time>2021-05-20T10:40:47.594Z</time>
      </trkpt>
      <trkpt lat="46.90274" lon="7.24013">
        <ele>492.97</ele>
        <time>2021-05-20T10:41:09.132Z</time>
      </trkpt>
      <trkpt lat="46.90263" lon="7.2401">
        <ele>493.86000000447</ele>
        <time>2021-05-20T10:41:35.945Z</time>
      </trkpt>
      <trkpt lat="46.90257" lon="7.2401">
        <ele>494.16999997959</ele>
        <time>2021-05-20T10:41:47.669Z</time>
      </trkpt>
      <trkpt lat="46.90247" lon="7.24016">
        <ele>494.28999997689</ele>
        <time>2021-05-20T10:42:00.966Z</time>
      </trkpt>
      <trkpt lat="46.9024" lon="7.24014">
        <ele>493.6</ele>
        <time>2021-05-20T10:42:02.637Z</time>
      </trkpt>
      <trkpt lat="46.90228" lon="7.24011">
        <ele>492.19999997938</ele>
        <time>2021-05-20T10:42:05.489Z</time>
      </trkpt>
      <trkpt lat="46.9022" lon="7.24007">
        <ele>491.12999996976</ele>
        <time>2021-05-20T10:42:07.470Z</time>
      </trkpt>
      <trkpt lat="46.90215" lon="7.24005">
        <ele>490.63</ele>
        <time>2021-05-20T10:42:08.684Z</time>
      </trkpt>
      <trkpt lat="46.9021" lon="7.24001">
        <ele>490.15999999809</ele>
        <time>2021-05-20T10:42:10.019Z</time>
      </trkpt>
      <trkpt lat="46.90207" lon="7.23997">
        <ele>489.85000000647</ele>
        <time>2021-05-20T10:42:10.970Z</time>
      </trkpt>
      <trkpt lat="46.90204" lon="7.23993">
        <ele>489.80000000063</ele>
        <time>2021-05-20T10:42:12.451Z</time>
      </trkpt>
      <trkpt lat="46.90199" lon="7.24001">
        <ele>489.82</ele>
        <time>2021-05-20T10:42:20.846Z</time>
      </trkpt>
      <trkpt lat="46.90189" lon="7.23994">
        <ele>489.94000000133</ele>
        <time>2021-05-20T10:42:34.446Z</time>
      </trkpt>
      <trkpt lat="46.90182" lon="7.23988">
        <ele>489.97</ele>
        <time>2021-05-20T10:42:43.726Z</time>
      </trkpt>
      <trkpt lat="46.90178" lon="7.23987">
        <ele>489.93000000245</ele>
        <time>2021-05-20T10:42:45.255Z</time>
      </trkpt>
      <trkpt lat="46.90172" lon="7.23983">
        <ele>489.96999999787</ele>
        <time>2021-05-20T10:42:52.971Z</time>
      </trkpt>
      <trkpt lat="46.90161" lon="7.23978">
        <ele>490.8400000051</ele>
        <time>2021-05-20T10:43:19.703Z</time>
      </trkpt>
      <trkpt lat="46.90152" lon="7.23974">
        <ele>491.26999998311</ele>
        <time>2021-05-20T10:43:37.383Z</time>
      </trkpt>
      <trkpt lat="46.9013" lon="7.23963">
        <ele>490.53999998666</ele>
        <time>2021-05-20T10:43:44.194Z</time>
      </trkpt>
      <trkpt lat="46.90125" lon="7.23961">
        <ele>490.03</ele>
        <time>2021-05-20T10:43:45.408Z</time>
      </trkpt>
      <trkpt lat="46.9011" lon="7.23953">
        <ele>489.70000000431</ele>
        <time>2021-05-20T10:43:50.669Z</time>
      </trkpt>
      <trkpt lat="46.90109" lon="7.23953">
        <ele>489.71</ele>
        <time>2021-05-20T10:43:51.885Z</time>
      </trkpt>
      <trkpt lat="46.90109" lon="7.23953">
        <ele>489.71</ele>
        <time>2021-05-20T10:43:51.885Z</time>
      </trkpt>
      <trkpt lat="46.90104" lon="7.2395">
        <ele>489.74</ele>
        <time>2021-05-20T10:43:58.178Z</time>
      </trkpt>
      <trkpt lat="46.90104" lon="7.2395">
        <ele>489.74</ele>
        <time>2021-05-20T10:43:58.178Z</time>
      </trkpt>
      <trkpt lat="46.90096" lon="7.23946">
        <ele>489.65000000311</ele>
        <time>2021-05-20T10:44:01.331Z</time>
      </trkpt>
      <trkpt lat="46.90072" lon="7.23934">
        <ele>489.64</ele>
        <time>2021-05-20T10:44:29.194Z</time>
      </trkpt>
      <trkpt lat="46.90053" lon="7.23924">
        <ele>489.8</ele>
        <time>2021-05-20T10:44:53.256Z</time>
      </trkpt>
      <trkpt lat="46.90051" lon="7.23923">
        <ele>489.90999995124</ele>
        <time>2021-05-20T10:44:57.396Z</time>
      </trkpt>
      <trkpt lat="46.90052" lon="7.23924">
        <ele>489.91</ele>
        <time>2021-05-20T10:44:58.642Z</time>
      </trkpt>
      <trkpt lat="46.90021" lon="7.23905">
        <ele>490</ele>
        <time>2021-05-20T10:45:36.502Z</time>
      </trkpt>
      <trkpt lat="46.89925" lon="7.23836">
        <ele>491.3</ele>
        <time>2021-05-20T10:47:49.944Z</time>
      </trkpt>
      <trkpt lat="46.8989" lon="7.23803">
        <ele>492.5</ele>
        <time>2021-05-20T10:48:51.739Z</time>
      </trkpt>
      <trkpt lat="46.89881" lon="7.23814">
        <ele>492.3</ele>
        <time>2021-05-20T10:48:55.681Z</time>
      </trkpt>
      <trkpt lat="46.89874" lon="7.23814">
        <ele>492.3</ele>
        <time>2021-05-20T10:49:03.634Z</time>
      </trkpt>
      <trkpt lat="46.89867" lon="7.23793">
        <ele>492.3</ele>
        <time>2021-05-20T10:49:21.374Z</time>
      </trkpt>
      <trkpt lat="46.89812" lon="7.23753">
        <ele>495</ele>
        <time>2021-05-20T10:51:14.831Z</time>
      </trkpt>
      <trkpt lat="46.89804" lon="7.23755">
        <ele>496</ele>
        <time>2021-05-20T10:51:44.917Z</time>
      </trkpt>
      <trkpt lat="46.89794" lon="7.23765">
        <ele>496.7</ele>
        <time>2021-05-20T10:52:09.718Z</time>
      </trkpt>
      <trkpt lat="46.89791" lon="7.23756">
        <ele>497</ele>
        <time>2021-05-20T10:52:22.350Z</time>
      </trkpt>
      <trkpt lat="46.89783" lon="7.23747">
        <ele>497.9</ele>
        <time>2021-05-20T10:52:48.677Z</time>
      </trkpt>
      <trkpt lat="46.89731" lon="7.23722">
        <ele>502.9</ele>
        <time>2021-05-20T10:55:13.833Z</time>
      </trkpt>
      <trkpt lat="46.89725" lon="7.23713">
        <ele>503.6</ele>
        <time>2021-05-20T10:55:35.000Z</time>
      </trkpt>
      <trkpt lat="46.89718" lon="7.23718">
        <ele>503.6</ele>
        <time>2021-05-20T10:55:43.009Z</time>
      </trkpt>
      <trkpt lat="46.8971" lon="7.23718">
        <ele>503.8</ele>
        <time>2021-05-20T10:55:54.574Z</time>
      </trkpt>
      <trkpt lat="46.89658" lon="7.23695">
        <ele>505.9</ele>
        <time>2021-05-20T10:57:27.751Z</time>
      </trkpt>
      <trkpt lat="46.89583" lon="7.23687">
        <ele>510.8</ele>
        <time>2021-05-20T11:00:08.716Z</time>
      </trkpt>
      <trkpt lat="46.89572" lon="7.23683">
        <ele>512.7</ele>
        <time>2021-05-20T11:00:59.869Z</time>
      </trkpt>
      <trkpt lat="46.89569" lon="7.23673">
        <ele>513.4</ele>
        <time>2021-05-20T11:01:20.182Z</time>
      </trkpt>
      <trkpt lat="46.89538" lon="7.23656">
        <ele>519.6</ele>
        <time>2021-05-20T11:03:39.711Z</time>
      </trkpt>
      <trkpt lat="46.89471" lon="7.2369">
        <ele>531.2</ele>
        <time>2021-05-20T11:08:43.999Z</time>
      </trkpt>
      <trkpt lat="46.89446" lon="7.23689">
        <ele>535.7</ele>
        <time>2021-05-20T11:10:31.438Z</time>
      </trkpt>
      <trkpt lat="46.89439" lon="7.23684">
        <ele>536.4</ele>
        <time>2021-05-20T11:10:51.960Z</time>
      </trkpt>
      <trkpt lat="46.89406" lon="7.23624">
        <ele>545.1</ele>
        <time>2021-05-20T11:14:35.519Z</time>
      </trkpt>
      <trkpt lat="46.89399" lon="7.23633">
        <ele>545.8</ele>
        <time>2021-05-20T11:14:57.298Z</time>
      </trkpt>
      <trkpt lat="46.89395" lon="7.23654">
        <ele>546.6</ele>
        <time>2021-05-20T11:15:26.670Z</time>
      </trkpt>
      <trkpt lat="46.89377" lon="7.23699">
        <ele>548.8</ele>
        <time>2021-05-20T11:16:41.545Z</time>
      </trkpt>
      <trkpt lat="46.89372" lon="7.23764">
        <ele>551.5</ele>
        <time>2021-05-20T11:18:14.679Z</time>
      </trkpt>
      <trkpt lat="46.8936" lon="7.23763">
        <ele>553.5</ele>
        <time>2021-05-20T11:19:08.500Z</time>
      </trkpt>
      <trkpt lat="46.89318" lon="7.23743">
        <ele>560.7</ele>
        <time>2021-05-20T11:22:13.982Z</time>
      </trkpt>
      <trkpt lat="46.89305" lon="7.23744">
        <ele>562.4</ele>
        <time>2021-05-20T11:23:05.916Z</time>
      </trkpt>
      <trkpt lat="46.89306" lon="7.23758">
        <ele>562.7</ele>
        <time>2021-05-20T11:23:21.066Z</time>
      </trkpt>
      <trkpt lat="46.89249" lon="7.23791">
        <ele>568.5</ele>
        <time>2021-05-20T11:26:08.352Z</time>
      </trkpt>
      <trkpt lat="46.89194" lon="7.23811">
        <ele>573.1</ele>
        <time>2021-05-20T11:28:25.838Z</time>
      </trkpt>
      <trkpt lat="46.89161" lon="7.23831">
        <ele>575.9</ele>
        <time>2021-05-20T11:29:50.798Z</time>
      </trkpt>
      <trkpt lat="46.89115" lon="7.23828">
        <ele>584.1</ele>
        <time>2021-05-20T11:33:06.516Z</time>
      </trkpt>
      <trkpt lat="46.8905" lon="7.23813">
        <ele>586.5</ele>
        <time>2021-05-20T11:34:55.605Z</time>
      </trkpt>
      <trkpt lat="46.89035" lon="7.23813">
        <ele>586.5</ele>
        <time>2021-05-20T11:35:12.506Z</time>
      </trkpt>
      <trkpt lat="46.89013" lon="7.23829">
        <ele>587.2</ele>
        <time>2021-05-20T11:35:48.818Z</time>
      </trkpt>
      <trkpt lat="46.88988" lon="7.23835">
        <ele>588.3</ele>
        <time>2021-05-20T11:36:35.464Z</time>
      </trkpt>
      <trkpt lat="46.88961" lon="7.23831">
        <ele>588.8</ele>
        <time>2021-05-20T11:37:11.528Z</time>
      </trkpt>
      <trkpt lat="46.88947" lon="7.23813">
        <ele>588</ele>
        <time>2021-05-20T11:37:16.575Z</time>
      </trkpt>
      <trkpt lat="46.88915" lon="7.23801">
        <ele>585.6</ele>
        <time>2021-05-20T11:37:24.189Z</time>
      </trkpt>
      <trkpt lat="46.88825" lon="7.23722">
        <ele>581.1</ele>
        <time>2021-05-20T11:37:51.790Z</time>
      </trkpt>
      <trkpt lat="46.88795" lon="7.23701">
        <ele>580.4</ele>
        <time>2021-05-20T11:38:02.915Z</time>
      </trkpt>
      <trkpt lat="46.88746" lon="7.23683">
        <ele>579.7</ele>
        <time>2021-05-20T11:38:20.849Z</time>
      </trkpt>
      <trkpt lat="46.88713" lon="7.23681">
        <ele>579.2</ele>
        <time>2021-05-20T11:38:32.593Z</time>
      </trkpt>
      <trkpt lat="46.88705" lon="7.23678">
        <ele>578.7</ele>
        <time>2021-05-20T11:38:34.543Z</time>
      </trkpt>
      <trkpt lat="46.88684" lon="7.23729">
        <ele>578.8</ele>
        <time>2021-05-20T11:39:20.487Z</time>
      </trkpt>
      <trkpt lat="46.88677" lon="7.23728">
        <ele>578.8</ele>
        <time>2021-05-20T11:39:28.502Z</time>
      </trkpt>
      <trkpt lat="46.88654" lon="7.23739">
        <ele>578.5</ele>
        <time>2021-05-20T11:39:37.195Z</time>
      </trkpt>
      <trkpt lat="46.88609" lon="7.23745">
        <ele>578</ele>
        <time>2021-05-20T11:39:53.930Z</time>
      </trkpt>
      <trkpt lat="46.88584" lon="7.23755">
        <ele>577.9</ele>
        <time>2021-05-20T11:40:21.274Z</time>
      </trkpt>
      <trkpt lat="46.88453" lon="7.23873">
        <ele>580.7</ele>
        <time>2021-05-20T11:43:45.145Z</time>
      </trkpt>
      <trkpt lat="46.88404" lon="7.23912">
        <ele>581.1</ele>
        <time>2021-05-20T11:44:51.716Z</time>
      </trkpt>
      <trkpt lat="46.8838" lon="7.23929">
        <ele>581</ele>
        <time>2021-05-20T11:45:18.998Z</time>
      </trkpt>
      <trkpt lat="46.88326" lon="7.23956">
        <ele>581.6</ele>
        <time>2021-05-20T11:46:28.579Z</time>
      </trkpt>
      <trkpt lat="46.88306" lon="7.23955">
        <ele>582.2</ele>
        <time>2021-05-20T11:46:59.735Z</time>
      </trkpt>
      <trkpt lat="46.88305" lon="7.23926">
        <ele>582.3</ele>
        <time>2021-05-20T11:47:22.623Z</time>
      </trkpt>
      <trkpt lat="46.88295" lon="7.23875">
        <ele>583.2</ele>
        <time>2021-05-20T11:48:14.575Z</time>
      </trkpt>
      <trkpt lat="46.88278" lon="7.23802">
        <ele>583.5</ele>
        <time>2021-05-20T11:49:15.153Z</time>
      </trkpt>
      <trkpt lat="46.88265" lon="7.23759">
        <ele>583.8</ele>
        <time>2021-05-20T11:49:54.415Z</time>
      </trkpt>
      <trkpt lat="46.8824" lon="7.23646">
        <ele>583.8</ele>
        <time>2021-05-20T11:51:23.773Z</time>
      </trkpt>
      <trkpt lat="46.88224" lon="7.23654">
        <ele>584.4</ele>
        <time>2021-05-20T11:51:51.591Z</time>
      </trkpt>
      <trkpt lat="46.88169" lon="7.23714">
        <ele>586.7</ele>
        <time>2021-05-20T11:53:40.580Z</time>
      </trkpt>
      <trkpt lat="46.88112" lon="7.23764">
        <ele>592.1</ele>
        <time>2021-05-20T11:56:22.443Z</time>
      </trkpt>
      <trkpt lat="46.87967" lon="7.23836">
        <ele>606.7</ele>
        <time>2021-05-20T12:03:23.413Z</time>
      </trkpt>
      <trkpt lat="46.87932" lon="7.23859">
        <ele>611.3</ele>
        <time>2021-05-20T12:05:40.393Z</time>
      </trkpt>
      <trkpt lat="46.87862" lon="7.23874">
        <ele>615</ele>
        <time>2021-05-20T12:07:59.341Z</time>
      </trkpt>
      <trkpt lat="46.87825" lon="7.23888">
        <ele>617.8</ele>
        <time>2021-05-20T12:09:26.441Z</time>
      </trkpt>
      <trkpt lat="46.87742" lon="7.23978">
        <ele>622</ele>
        <time>2021-05-20T12:12:28.518Z</time>
      </trkpt>
      <trkpt lat="46.87722" lon="7.23995">
        <ele>623.3</ele>
        <time>2021-05-20T12:13:14.911Z</time>
      </trkpt>
      <trkpt lat="46.87707" lon="7.23955">
        <ele>623.5</ele>
        <time>2021-05-20T12:13:51.263Z</time>
      </trkpt>
      <trkpt lat="46.87696" lon="7.23917">
        <ele>623.7</ele>
        <time>2021-05-20T12:14:24.547Z</time>
      </trkpt>
      <trkpt lat="46.87669" lon="7.23849">
        <ele>623.1</ele>
        <time>2021-05-20T12:14:44.514Z</time>
      </trkpt>
      <trkpt lat="46.87657" lon="7.23803">
        <ele>622.5</ele>
        <time>2021-05-20T12:14:55.916Z</time>
      </trkpt>
      <trkpt lat="46.87648" lon="7.23807">
        <ele>622.6</ele>
        <time>2021-05-20T12:15:07.415Z</time>
      </trkpt>
      <trkpt lat="46.87637" lon="7.23821">
        <ele>623</ele>
        <time>2021-05-20T12:15:28.405Z</time>
      </trkpt>
      <trkpt lat="46.87551" lon="7.23894">
        <ele>623.1</ele>
        <time>2021-05-20T12:17:19.830Z</time>
      </trkpt>
      <trkpt lat="46.8747" lon="7.23741">
        <ele>624.2</ele>
        <time>2021-05-20T12:19:58.346Z</time>
      </trkpt>
      <trkpt lat="46.87399" lon="7.23542">
        <ele>623.5</ele>
        <time>2021-05-20T12:22:36.697Z</time>
      </trkpt>
      <trkpt lat="46.87394" lon="7.23522">
        <ele>623.4</ele>
        <time>2021-05-20T12:22:51.183Z</time>
      </trkpt>
      <trkpt lat="46.87377" lon="7.23381">
        <ele>620.8</ele>
        <time>2021-05-20T12:23:21.489Z</time>
      </trkpt>
      <trkpt lat="46.87368" lon="7.23338">
        <ele>619.9</ele>
        <time>2021-05-20T12:23:30.770Z</time>
      </trkpt>
      <trkpt lat="46.87346" lon="7.23267">
        <ele>617.8</ele>
        <time>2021-05-20T12:23:45.223Z</time>
      </trkpt>
      <trkpt lat="46.87309" lon="7.23194">
        <ele>613.3</ele>
        <time>2021-05-20T12:23:59.697Z</time>
      </trkpt>
      <trkpt lat="46.87307" lon="7.23178">
        <ele>612.3</ele>
        <time>2021-05-20T12:24:02.296Z</time>
      </trkpt>
      <trkpt lat="46.87308" lon="7.23167">
        <ele>611.5</ele>
        <time>2021-05-20T12:24:03.990Z</time>
      </trkpt>
      <trkpt lat="46.87324" lon="7.23136">
        <ele>608.1</ele>
        <time>2021-05-20T12:24:10.300Z</time>
      </trkpt>
      <trkpt lat="46.87356" lon="7.23099">
        <ele>602.7</ele>
        <time>2021-05-20T12:24:19.900Z</time>
      </trkpt>
      <trkpt lat="46.87448" lon="7.23026">
        <ele>589.4</ele>
        <time>2021-05-20T12:24:44.305Z</time>
      </trkpt>
      <trkpt lat="46.87461" lon="7.2302">
        <ele>588.8</ele>
        <time>2021-05-20T12:24:48.052Z</time>
      </trkpt>
      <trkpt lat="46.8749" lon="7.23018">
        <ele>589</ele>
        <time>2021-05-20T12:25:22.043Z</time>
      </trkpt>
      <trkpt lat="46.87496" lon="7.23014">
        <ele>588.9</ele>
        <time>2021-05-20T12:25:24.471Z</time>
      </trkpt>
      <trkpt lat="46.87502" lon="7.22953">
        <ele>585.7</ele>
        <time>2021-05-20T12:25:34.454Z</time>
      </trkpt>
      <trkpt lat="46.87458" lon="7.22961">
        <ele>582.7</ele>
        <time>2021-05-20T12:25:44.858Z</time>
      </trkpt>
      <trkpt lat="46.87438" lon="7.2296">
        <ele>581</ele>
        <time>2021-05-20T12:25:49.709Z</time>
      </trkpt>
      <trkpt lat="46.87418" lon="7.22948">
        <ele>579.3</ele>
        <time>2021-05-20T12:25:54.717Z</time>
      </trkpt>
      <trkpt lat="46.87409" lon="7.22935">
        <ele>578.3</ele>
        <time>2021-05-20T12:25:57.693Z</time>
      </trkpt>
      <trkpt lat="46.874" lon="7.22909">
        <ele>576.9</ele>
        <time>2021-05-20T12:26:02.393Z</time>
      </trkpt>
      <trkpt lat="46.8732" lon="7.22563">
        <ele>583.4</ele>
        <time>2021-05-20T12:32:04.688Z</time>
      </trkpt>
      <trkpt lat="46.87256" lon="7.22388">
        <ele>584.8</ele>
        <time>2021-05-20T12:34:49.868Z</time>
      </trkpt>
      <trkpt lat="46.87347" lon="7.2232">
        <ele>584.8</ele>
        <time>2021-05-20T12:36:43.617Z</time>
      </trkpt>
      <trkpt lat="46.87364" lon="7.223">
        <ele>585.4</ele>
        <time>2021-05-20T12:37:15.101Z</time>
      </trkpt>
      <trkpt lat="46.87458" lon="7.22217">
        <ele>583.5</ele>
        <time>2021-05-20T12:37:52.863Z</time>
      </trkpt>
      <trkpt lat="46.8753" lon="7.22124">
        <ele>571.4</ele>
        <time>2021-05-20T12:38:15.374Z</time>
      </trkpt>
      <trkpt lat="46.8752" lon="7.22105">
        <ele>571.9</ele>
        <time>2021-05-20T12:38:40.135Z</time>
      </trkpt>
      <trkpt lat="46.87514" lon="7.22065">
        <ele>572.7</ele>
        <time>2021-05-20T12:39:22.358Z</time>
      </trkpt>
      <trkpt lat="46.87522" lon="7.22059">
        <ele>572.1</ele>
        <time>2021-05-20T12:39:24.432Z</time>
      </trkpt>
      <trkpt lat="46.87527" lon="7.22027">
        <ele>570.7</ele>
        <time>2021-05-20T12:39:29.550Z</time>
      </trkpt>
      <trkpt lat="46.87536" lon="7.21935">
        <ele>566.2</ele>
        <time>2021-05-20T12:39:44.407Z</time>
      </trkpt>
      <trkpt lat="46.87553" lon="7.21819">
        <ele>561.2</ele>
        <time>2021-05-20T12:40:02.446Z</time>
      </trkpt>
      <trkpt lat="46.8763" lon="7.21168">
        <ele>551.5</ele>
        <time>2021-05-20T12:42:29.865Z</time>
      </trkpt>
      <trkpt lat="46.87634" lon="7.21067">
        <ele>550.9</ele>
        <time>2021-05-20T12:42:56.342Z</time>
      </trkpt>
      <trkpt lat="46.87629" lon="7.21044">
        <ele>552.3</ele>
        <time>2021-05-20T12:43:37.848Z</time>
      </trkpt>
      <trkpt lat="46.8766" lon="7.21033">
        <ele>549.1</ele>
        <time>2021-05-20T12:43:45.208Z</time>
      </trkpt>
      <trkpt lat="46.87618" lon="7.20789">
        <ele>540</ele>
        <time>2021-05-20T12:44:26.369Z</time>
      </trkpt>
      <trkpt lat="46.87617" lon="7.20763">
        <ele>539.3</ele>
        <time>2021-05-20T12:44:31.247Z</time>
      </trkpt>
      <trkpt lat="46.87625" lon="7.20747">
        <ele>538.3</ele>
        <time>2021-05-20T12:44:34.402Z</time>
      </trkpt>
      <trkpt lat="46.87908" lon="7.20427">
        <ele>544</ele>
        <time>2021-05-20T12:52:17.031Z</time>
      </trkpt>
      <trkpt lat="46.87922" lon="7.20402">
        <ele>543.1</ele>
        <time>2021-05-20T12:52:23.010Z</time>
      </trkpt>
      <trkpt lat="46.87941" lon="7.20382">
        <ele>542.5</ele>
        <time>2021-05-20T12:52:30.215Z</time>
      </trkpt>
      <trkpt lat="46.87947" lon="7.20384">
        <ele>542.6</ele>
        <time>2021-05-20T12:52:38.427Z</time>
      </trkpt>
      <trkpt lat="46.87979" lon="7.20411">
        <ele>542.2</ele>
        <time>2021-05-20T12:52:52.065Z</time>
      </trkpt>
      <trkpt lat="46.88016" lon="7.20417">
        <ele>540.1</ele>
        <time>2021-05-20T12:53:00.704Z</time>
      </trkpt>
      <trkpt lat="46.88043" lon="7.20434">
        <ele>537.1</ele>
        <time>2021-05-20T12:53:07.591Z</time>
      </trkpt>
      <trkpt lat="46.88066" lon="7.20443">
        <ele>536.1</ele>
        <time>2021-05-20T12:53:14.026Z</time>
      </trkpt>
      <trkpt lat="46.88076" lon="7.2044">
        <ele>535.5</ele>
        <time>2021-05-20T12:53:16.371Z</time>
      </trkpt>
      <trkpt lat="46.88102" lon="7.20409">
        <ele>532.6</ele>
        <time>2021-05-20T12:53:24.162Z</time>
      </trkpt>
      <trkpt lat="46.88153" lon="7.2036">
        <ele>526.3</ele>
        <time>2021-05-20T12:53:38.471Z</time>
      </trkpt>
      <trkpt lat="46.88202" lon="7.20386">
        <ele>521.2</ele>
        <time>2021-05-20T12:53:50.602Z</time>
      </trkpt>
      <trkpt lat="46.88242" lon="7.20434">
        <ele>514.9</ele>
        <time>2021-05-20T12:54:02.733Z</time>
      </trkpt>
      <trkpt lat="46.88325" lon="7.2048">
        <ele>503.7</ele>
        <time>2021-05-20T12:54:23.545Z</time>
      </trkpt>
      <trkpt lat="46.88365" lon="7.20541">
        <ele>502.5</ele>
        <time>2021-05-20T12:54:42.312Z</time>
      </trkpt>
      <trkpt lat="46.88383" lon="7.20577">
        <ele>501.5</ele>
        <time>2021-05-20T12:54:51.269Z</time>
      </trkpt>
      <trkpt lat="46.88393" lon="7.20555">
        <ele>500.1</ele>
        <time>2021-05-20T12:54:55.527Z</time>
      </trkpt>
      <trkpt lat="46.88442" lon="7.20504">
        <ele>495.9</ele>
        <time>2021-05-20T12:55:09.722Z</time>
      </trkpt>
      <trkpt lat="46.88486" lon="7.20474">
        <ele>495.7</ele>
        <time>2021-05-20T12:55:59.908Z</time>
      </trkpt>
      <trkpt lat="46.88549" lon="7.20426">
        <ele>495.3</ele>
        <time>2021-05-20T12:57:12.333Z</time>
      </trkpt>
      <trkpt lat="46.88551" lon="7.2042">
        <ele>493.8</ele>
        <time>2021-05-20T12:57:13.273Z</time>
      </trkpt>
      <trkpt lat="46.88548" lon="7.20416">
        <ele>493.2</ele>
        <time>2021-05-20T12:57:14.166Z</time>
      </trkpt>
      <trkpt lat="46.88451" lon="7.20291">
        <ele>495.3</ele>
        <time>2021-05-20T13:00:02.584Z</time>
      </trkpt>
      <trkpt lat="46.8843" lon="7.20267">
        <ele>495.4</ele>
        <time>2021-05-20T13:00:32.635Z</time>
      </trkpt>
      <trkpt lat="46.88408" lon="7.20252">
        <ele>495.5</ele>
        <time>2021-05-20T13:01:00.347Z</time>
      </trkpt>
      <trkpt lat="46.883" lon="7.202">
        <ele>496.7</ele>
        <time>2021-05-20T13:03:19.511Z</time>
      </trkpt>
      <trkpt lat="46.88172" lon="7.2017">
        <ele>496.8</ele>
        <time>2021-05-20T13:05:44.514Z</time>
      </trkpt>
      <trkpt lat="46.88148" lon="7.20144">
        <ele>492.9</ele>
        <time>2021-05-20T13:05:51.419Z</time>
      </trkpt>
      <trkpt lat="46.88145" lon="7.2012">
        <ele>492.2</ele>
        <time>2021-05-20T13:05:55.708Z</time>
      </trkpt>
      <trkpt lat="46.88133" lon="7.20084">
        <ele>492</ele>
        <time>2021-05-20T13:06:23.699Z</time>
      </trkpt>
      <trkpt lat="46.88113" lon="7.20075">
        <ele>492.1</ele>
        <time>2021-05-20T13:06:47.704Z</time>
      </trkpt>
      <trkpt lat="46.88095" lon="7.20072">
        <ele>491.4</ele>
        <time>2021-05-20T13:06:52.628Z</time>
      </trkpt>
      <trkpt lat="46.88056" lon="7.20076">
        <ele>489.5</ele>
        <time>2021-05-20T13:07:02.236Z</time>
      </trkpt>
      <trkpt lat="46.88048" lon="7.20072">
        <ele>489.2</ele>
        <time>2021-05-20T13:07:04.642Z</time>
      </trkpt>
      <trkpt lat="46.88042" lon="7.20062">
        <ele>489.9</ele>
        <time>2021-05-20T13:07:26.418Z</time>
      </trkpt>
      <trkpt lat="46.88042" lon="7.20051">
        <ele>490.8</ele>
        <time>2021-05-20T13:07:53.838Z</time>
      </trkpt>
      <trkpt lat="46.88055" lon="7.19998">
        <ele>492.5</ele>
        <time>2021-05-20T13:09:05.691Z</time>
      </trkpt>
      <trkpt lat="46.88054" lon="7.1999">
        <ele>492.2</ele>
        <time>2021-05-20T13:09:06.976Z</time>
      </trkpt>
      <trkpt lat="46.88043" lon="7.19957">
        <ele>492.2</ele>
        <time>2021-05-20T13:09:34.475Z</time>
      </trkpt>
      <trkpt lat="46.88024" lon="7.19923">
        <ele>492.6</ele>
        <time>2021-05-20T13:10:12.875Z</time>
      </trkpt>
      <trkpt lat="46.87999" lon="7.1985">
        <ele>492.8</ele>
        <time>2021-05-20T13:11:16.618Z</time>
      </trkpt>
      <trkpt lat="46.88002" lon="7.19815">
        <ele>492.5</ele>
        <time>2021-05-20T13:11:25.133Z</time>
      </trkpt>
      <trkpt lat="46.87998" lon="7.19783">
        <ele>492.8</ele>
        <time>2021-05-20T13:11:53.682Z</time>
      </trkpt>
      <trkpt lat="46.88001" lon="7.19745">
        <ele>493.8</ele>
        <time>2021-05-20T13:12:38.161Z</time>
      </trkpt>
      <trkpt lat="46.87999" lon="7.19731">
        <ele>493.7</ele>
        <time>2021-05-20T13:12:41.559Z</time>
      </trkpt>
      <trkpt lat="46.88017" lon="7.1967">
        <ele>493.9</ele>
        <time>2021-05-20T13:13:34.314Z</time>
      </trkpt>
      <trkpt lat="46.88027" lon="7.1966">
        <ele>494.1</ele>
        <time>2021-05-20T13:13:49.665Z</time>
      </trkpt>
      <trkpt lat="46.88033" lon="7.1966">
        <ele>494.7</ele>
        <time>2021-05-20T13:14:06.968Z</time>
      </trkpt>
      <trkpt lat="46.88097" lon="7.19694">
        <ele>497.1</ele>
        <time>2021-05-20T13:15:58.017Z</time>
      </trkpt>
      <trkpt lat="46.88117" lon="7.19701">
        <ele>499.1</ele>
        <time>2021-05-20T13:16:55.532Z</time>
      </trkpt>
      <trkpt lat="46.88169" lon="7.19639">
        <ele>500.1</ele>
        <time>2021-05-20T13:18:21.382Z</time>
      </trkpt>
      <trkpt lat="46.88181" lon="7.19631">
        <ele>500.2</ele>
        <time>2021-05-20T13:18:37.602Z</time>
      </trkpt>
      <trkpt lat="46.88187" lon="7.19672">
        <ele>501.5</ele>
        <time>2021-05-20T13:19:30.898Z</time>
      </trkpt>
      <trkpt lat="46.88195" lon="7.19691">
        <ele>502.2</ele>
        <time>2021-05-20T13:20:00.198Z</time>
      </trkpt>
      <trkpt lat="46.88205" lon="7.19704">
        <ele>502.8</ele>
        <time>2021-05-20T13:20:25.175Z</time>
      </trkpt>
      <trkpt lat="46.88209" lon="7.19699">
        <ele>503.04</ele>
        <time>2021-05-20T13:20:35.465Z</time>
      </trkpt>
      <trkpt lat="46.88209" lon="7.19699">
        <ele>503.04000075313</ele>
        <time>2021-05-20T13:20:35.791Z</time>
      </trkpt>
      <trkpt lat="46.88207" lon="7.19701">
        <ele>502.87000001428</ele>
        <time>2021-05-20T13:20:36.358Z</time>
      </trkpt>
      <trkpt lat="46.88205" lon="7.19704">
        <ele>503.00999998481</ele>
        <time>2021-05-20T13:20:41.853Z</time>
      </trkpt>
      <trkpt lat="46.8821" lon="7.1971">
        <ele>503.2199999963</ele>
        <time>2021-05-20T13:20:52.026Z</time>
      </trkpt>
      <trkpt lat="46.88221" lon="7.19718">
        <ele>503.89</ele>
        <time>2021-05-20T13:21:16.494Z</time>
      </trkpt>
      <trkpt lat="46.88282" lon="7.19764">
        <ele>505.48000000395</ele>
        <time>2021-05-20T13:22:52.774Z</time>
      </trkpt>
      <trkpt lat="46.88308" lon="7.19783">
        <ele>506</ele>
        <time>2021-05-20T13:23:31.191Z</time>
      </trkpt>
      <trkpt lat="46.88324" lon="7.19795">
        <ele>506.59000001288</ele>
        <time>2021-05-20T13:23:59.602Z</time>
      </trkpt>
      <trkpt lat="46.88333" lon="7.19801">
        <ele>507.14999997952</ele>
        <time>2021-05-20T13:24:19.582Z</time>
      </trkpt>
      <trkpt lat="46.88345" lon="7.19805">
        <ele>507.56000001269</ele>
        <time>2021-05-20T13:24:39.158Z</time>
      </trkpt>
      <trkpt lat="46.88352" lon="7.19807">
        <ele>508.16</ele>
        <time>2021-05-20T13:24:56.911Z</time>
      </trkpt>
      <trkpt lat="46.88363" lon="7.19809">
        <ele>509.1399999619</ele>
        <time>2021-05-20T13:25:25.537Z</time>
      </trkpt>
      <trkpt lat="46.88376" lon="7.19808">
        <ele>510.42999995926</ele>
        <time>2021-05-20T13:26:02.624Z</time>
      </trkpt>
      <trkpt lat="46.88391" lon="7.19809">
        <ele>511.97999998588</ele>
        <time>2021-05-20T13:26:47.182Z</time>
      </trkpt>
      <trkpt lat="46.88412" lon="7.19809">
        <ele>514.96</ele>
        <time>2021-05-20T13:28:16.705Z</time>
      </trkpt>
      <trkpt lat="46.88423" lon="7.19811">
        <ele>515.69</ele>
        <time>2021-05-20T13:28:40.610Z</time>
      </trkpt>
      <trkpt lat="46.88432" lon="7.19814">
        <ele>516.52</ele>
        <time>2021-05-20T13:29:04.767Z</time>
      </trkpt>
      <trkpt lat="46.8844" lon="7.19817">
        <ele>517.41</ele>
        <time>2021-05-20T13:29:30.446Z</time>
      </trkpt>
      <trkpt lat="46.88453" lon="7.19826">
        <ele>519.09</ele>
        <time>2021-05-20T13:30:19.881Z</time>
      </trkpt>
      <trkpt lat="46.88461" lon="7.19833">
        <ele>519.98</ele>
        <time>2021-05-20T13:30:45.542Z</time>
      </trkpt>
      <trkpt lat="46.88468" lon="7.19839">
        <ele>520.84</ele>
        <time>2021-05-20T13:31:10.308Z</time>
      </trkpt>
      <trkpt lat="46.88478" lon="7.19846">
        <ele>521.89999999364</ele>
        <time>2021-05-20T13:31:40.865Z</time>
      </trkpt>
      <trkpt lat="46.88497" lon="7.19863">
        <ele>523.82000004584</ele>
        <time>2021-05-20T13:32:37.293Z</time>
      </trkpt>
      <trkpt lat="46.885" lon="7.19865">
        <ele>524.23000004045</ele>
        <time>2021-05-20T13:32:49.718Z</time>
      </trkpt>
      <trkpt lat="46.88503" lon="7.19865">
        <ele>524.59</ele>
        <time>2021-05-20T13:33:00.428Z</time>
      </trkpt>
      <trkpt lat="46.88505" lon="7.19865">
        <ele>524.72</ele>
        <time>2021-05-20T13:33:04.714Z</time>
      </trkpt>
      <trkpt lat="46.88507" lon="7.19864">
        <ele>524.95999997577</ele>
        <time>2021-05-20T13:33:11.713Z</time>
      </trkpt>
      <trkpt lat="46.8851" lon="7.19862">
        <ele>525.2700000011</ele>
        <time>2021-05-20T13:33:20.667Z</time>
      </trkpt>
      <trkpt lat="46.88512" lon="7.1986">
        <ele>525.4799999741</ele>
        <time>2021-05-20T13:33:26.831Z</time>
      </trkpt>
      <trkpt lat="46.88514" lon="7.19856">
        <ele>525.8</ele>
        <time>2021-05-20T13:33:36.068Z</time>
      </trkpt>
      <trkpt lat="46.88516" lon="7.19852">
        <ele>525.96</ele>
        <time>2021-05-20T13:33:42.498Z</time>
      </trkpt>
      <trkpt lat="46.8852" lon="7.19836">
        <ele>526.88</ele>
        <time>2021-05-20T13:34:10.282Z</time>
      </trkpt>
      <trkpt lat="46.88521" lon="7.19837">
        <ele>526.88</ele>
        <time>2021-05-20T13:34:11.481Z</time>
      </trkpt>
      <trkpt lat="46.8852" lon="7.19836">
        <ele>526.88</ele>
        <time>2021-05-20T13:34:12.680Z</time>
      </trkpt>
      <trkpt lat="46.88524" lon="7.19824">
        <ele>527.79999995755</ele>
        <time>2021-05-20T13:34:39.119Z</time>
      </trkpt>
      <trkpt lat="46.88528" lon="7.19811">
        <ele>528.8</ele>
        <time>2021-05-20T13:35:07.860Z</time>
      </trkpt>
      <trkpt lat="46.88529" lon="7.19806">
        <ele>528.95000005857</ele>
        <time>2021-05-20T13:35:14.268Z</time>
      </trkpt>
      <trkpt lat="46.88529" lon="7.19801">
        <ele>529.41</ele>
        <time>2021-05-20T13:35:28.836Z</time>
      </trkpt>
      <trkpt lat="46.88529" lon="7.19795">
        <ele>529.75</ele>
        <time>2021-05-20T13:35:38.940Z</time>
      </trkpt>
      <trkpt lat="46.88528" lon="7.1979">
        <ele>530.13000004878</ele>
        <time>2021-05-20T13:35:49.891Z</time>
      </trkpt>
      <trkpt lat="46.88526" lon="7.19786">
        <ele>530.47999996175</ele>
        <time>2021-05-20T13:35:59.952Z</time>
      </trkpt>
      <trkpt lat="46.88523" lon="7.19781">
        <ele>530.91</ele>
        <time>2021-05-20T13:36:12.364Z</time>
      </trkpt>
      <trkpt lat="46.8852" lon="7.19777">
        <ele>531.30999997031</ele>
        <time>2021-05-20T13:36:23.867Z</time>
      </trkpt>
      <trkpt lat="46.88509" lon="7.19769">
        <ele>532.46</ele>
        <time>2021-05-20T13:36:57.106Z</time>
      </trkpt>
      <trkpt lat="46.88506" lon="7.19766">
        <ele>532.6299999955</ele>
        <time>2021-05-20T13:37:03.983Z</time>
      </trkpt>
      <trkpt lat="46.88503" lon="7.19762">
        <ele>532.99999999505</ele>
        <time>2021-05-20T13:37:14.724Z</time>
      </trkpt>
      <trkpt lat="46.885" lon="7.19758">
        <ele>533.4399999955</ele>
        <time>2021-05-20T13:37:27.430Z</time>
      </trkpt>
      <trkpt lat="46.8849" lon="7.19739">
        <ele>534.88</ele>
        <time>2021-05-20T13:38:09.553Z</time>
      </trkpt>
      <trkpt lat="46.88487" lon="7.19734">
        <ele>535.24</ele>
        <time>2021-05-20T13:38:20.417Z</time>
      </trkpt>
      <trkpt lat="46.88484" lon="7.1973">
        <ele>535.64999994001</ele>
        <time>2021-05-20T13:38:32.199Z</time>
      </trkpt>
      <trkpt lat="46.8848" lon="7.19726">
        <ele>536.08</ele>
        <time>2021-05-20T13:38:44.749Z</time>
      </trkpt>
      <trkpt lat="46.88475" lon="7.19723">
        <ele>536.56999997648</ele>
        <time>2021-05-20T13:38:58.987Z</time>
      </trkpt>
      <trkpt lat="46.88469" lon="7.19721">
        <ele>537.0900000259</ele>
        <time>2021-05-20T13:39:14.353Z</time>
      </trkpt>
      <trkpt lat="46.88464" lon="7.19719">
        <ele>537.48999998525</ele>
        <time>2021-05-20T13:39:26.539Z</time>
      </trkpt>
      <trkpt lat="46.88456" lon="7.19717">
        <ele>538.02000001828</ele>
        <time>2021-05-20T13:39:43.972Z</time>
      </trkpt>
      <trkpt lat="46.88448" lon="7.19716">
        <ele>538.45</ele>
        <time>2021-05-20T13:39:59.858Z</time>
      </trkpt>
      <trkpt lat="46.88443" lon="7.19716">
        <ele>538.8499999718</ele>
        <time>2021-05-20T13:40:11.885Z</time>
      </trkpt>
      <trkpt lat="46.88438" lon="7.19717">
        <ele>539.12999999279</ele>
        <time>2021-05-20T13:40:22.001Z</time>
      </trkpt>
      <trkpt lat="46.88433" lon="7.19718">
        <ele>539.45</ele>
        <time>2021-05-20T13:40:32.693Z</time>
      </trkpt>
      <trkpt lat="46.88428" lon="7.19721">
        <ele>539.61999999814</ele>
        <time>2021-05-20T13:40:41.083Z</time>
      </trkpt>
      <trkpt lat="46.88404" lon="7.19738">
        <ele>541.38</ele>
        <time>2021-05-20T13:41:38.651Z</time>
      </trkpt>
      <trkpt lat="46.884" lon="7.19741">
        <ele>541.58</ele>
        <time>2021-05-20T13:41:47.035Z</time>
      </trkpt>
      <trkpt lat="46.88397" lon="7.19741">
        <ele>541.77999997751</ele>
        <time>2021-05-20T13:41:53.543Z</time>
      </trkpt>
      <trkpt lat="46.88394" lon="7.19741">
        <ele>541.98999998476</ele>
        <time>2021-05-20T13:42:00.215Z</time>
      </trkpt>
      <trkpt lat="46.88391" lon="7.1974">
        <ele>542.1800000077</ele>
        <time>2021-05-20T13:42:06.658Z</time>
      </trkpt>
      <trkpt lat="46.88389" lon="7.19739">
        <ele>542.21</ele>
        <time>2021-05-20T13:42:09.343Z</time>
      </trkpt>
      <trkpt lat="46.8839" lon="7.1974">
        <ele>542.21</ele>
        <time>2021-05-20T13:42:10.407Z</time>
      </trkpt>
      <trkpt lat="46.88389" lon="7.19739">
        <ele>542.21</ele>
        <time>2021-05-20T13:42:11.472Z</time>
      </trkpt>
      <trkpt lat="46.88388" lon="7.19739">
        <ele>542.24999999758</ele>
        <time>2021-05-20T13:42:13.216Z</time>
      </trkpt>
      <trkpt lat="46.88386" lon="7.19736">
        <ele>542.67</ele>
        <time>2021-05-20T13:42:25.427Z</time>
      </trkpt>
      <trkpt lat="46.88382" lon="7.19731">
        <ele>542.83999998801</ele>
        <time>2021-05-20T13:42:33.686Z</time>
      </trkpt>
      <trkpt lat="46.88374" lon="7.19722">
        <ele>543.07999999524</ele>
        <time>2021-05-20T13:42:47.946Z</time>
      </trkpt>
      <trkpt lat="46.88364" lon="7.19709">
        <ele>542.72</ele>
        <time>2021-05-20T13:42:52.055Z</time>
      </trkpt>
      <trkpt lat="46.8836" lon="7.19704">
        <ele>542.61999999979</ele>
        <time>2021-05-20T13:42:53.823Z</time>
      </trkpt>
      <trkpt lat="46.88358" lon="7.19699">
        <ele>542.58</ele>
        <time>2021-05-20T13:42:55.311Z</time>
      </trkpt>
      <trkpt lat="46.88357" lon="7.19697">
        <ele>542.44</ele>
        <time>2021-05-20T13:42:55.707Z</time>
      </trkpt>
      <trkpt lat="46.88356" lon="7.19694">
        <ele>542.29</ele>
        <time>2021-05-20T13:42:56.200Z</time>
      </trkpt>
      <trkpt lat="46.88356" lon="7.19689">
        <ele>542.14</ele>
        <time>2021-05-20T13:42:57.087Z</time>
      </trkpt>
      <trkpt lat="46.88352" lon="7.19686">
        <ele>541.90999997204</ele>
        <time>2021-05-20T13:42:58.180Z</time>
      </trkpt>
      <trkpt lat="46.88348" lon="7.19684">
        <ele>541.65</ele>
        <time>2021-05-20T13:42:59.124Z</time>
      </trkpt>
      <trkpt lat="46.88345" lon="7.19681">
        <ele>541.44</ele>
        <time>2021-05-20T13:42:59.960Z</time>
      </trkpt>
      <trkpt lat="46.88341" lon="7.19677">
        <ele>541.07</ele>
        <time>2021-05-20T13:43:01.096Z</time>
      </trkpt>
      <trkpt lat="46.88335" lon="7.1967">
        <ele>540.60000000774</ele>
        <time>2021-05-20T13:43:02.813Z</time>
      </trkpt>
      <trkpt lat="46.88329" lon="7.19662">
        <ele>540.02000001361</ele>
        <time>2021-05-20T13:43:04.715Z</time>
      </trkpt>
      <trkpt lat="46.88322" lon="7.19651">
        <ele>539.51999999381</ele>
        <time>2021-05-20T13:43:07.268Z</time>
      </trkpt>
      <trkpt lat="46.88317" lon="7.1964">
        <ele>538.78</ele>
        <time>2021-05-20T13:43:09.384Z</time>
      </trkpt>
      <trkpt lat="46.88311" lon="7.19626">
        <ele>538.19999998866</ele>
        <time>2021-05-20T13:43:12.126Z</time>
      </trkpt>
      <trkpt lat="46.88308" lon="7.19617">
        <ele>537.70000000604</ele>
        <time>2021-05-20T13:43:13.730Z</time>
      </trkpt>
      <trkpt lat="46.88306" lon="7.19607">
        <ele>537.23000002441</ele>
        <time>2021-05-20T13:43:15.266Z</time>
      </trkpt>
      <trkpt lat="46.88304" lon="7.19595">
        <ele>536.62</ele>
        <time>2021-05-20T13:43:17.244Z</time>
      </trkpt>
      <trkpt lat="46.88304" lon="7.19593">
        <ele>536.54</ele>
        <time>2021-05-20T13:43:17.556Z</time>
      </trkpt>
      <trkpt lat="46.88304" lon="7.19594">
        <ele>536.54</ele>
        <time>2021-05-20T13:43:18.189Z</time>
      </trkpt>
    </trkseg>
  </trk>
</gpx>